Observation data for Amarillo 15 North Northwest on 07/20/2019      Previous  Date       Current Mesonet Observations  Soil Data  Daily Summary Page  Observations in Plain Language
KAM3 200500Z 18013KT 31/14 A299 RMK A01 T03070140  RH  036%=      5-min Rain = 0
KAM3 200501Z 18012G17KT 31/14 A299 RMK A01 T03070141  RH  036%=      5-min Rain = 0
KAM3 200502Z 18014KT 31/14 A299 RMK A01 T03070141  RH  036%=      5-min Rain = 0
KAM3 200503Z 18016KT 31/14 A299 RMK A01 T03060141  RH  037%=      5-min Rain = 0
KAM3 200504Z 18013KT 31/14 A299 RMK A01 T03060141  RH  037%=      5-min Rain = 0
KAM3 200505Z 18014G19KT 31/14 A299 RMK A01 T03060141  RH  037%=      5-min Rain = 0
KAM3 200506Z 18014G19KT 31/14 A299 RMK A01 T03050141  RH  037%=      5-min Rain = 0
KAM3 200507Z 18013KT 31/14 A299 RMK A01 T03050141  RH  037%=      5-min Rain = 0
KAM3 200508Z 18014G19KT 30/14 A299 RMK A01 T03040141  RH  037%=      5-min Rain = 0
KAM3 200509Z 18011KT 30/14 A299 RMK A01 T03030141  RH  037%=      5-min Rain = 0
KAM3 200510Z 18014KT 30/14 A299 RMK A01 T03020141  RH  037%=      5-min Rain = 0
KAM3 200511Z 18013KT 30/14 A299 RMK A01 T03030141  RH  037%=      5-min Rain = 0
KAM3 200512Z 18015KT 30/14 A299 RMK A01 T03030141  RH  037%=      5-min Rain = 0
KAM3 200513Z 18014KT 30/14 A299 RMK A01 T03030141  RH  037%=      5-min Rain = 0
KAM3 200514Z 18012KT 30/14 A299 RMK A01 T03020141  RH  037%=      5-min Rain = 0
KAM3 200515Z 18014KT 30/14 A299 RMK A01 T03020141  RH  038%=      5-min Rain = 0
KAM3 200516Z 18012KT 30/14 A299 RMK A01 T03010141  RH  038%=      5-min Rain = 0
KAM3 200517Z 18014KT 30/14 A299 RMK A01 T03000141  RH  038%=      5-min Rain = 0
KAM3 200518Z 18013KT 30/14 A299 RMK A01 T03000141  RH  038%=      5-min Rain = 0
KAM3 200519Z 18013KT 30/14 A299 RMK A01 T03000141  RH  038%=      5-min Rain = 0
KAM3 200520Z 18012KT 30/14 A299 RMK A01 T03000141  RH  038%=      5-min Rain = 0
KAM3 200521Z 18014KT 30/14 A299 RMK A01 T02990142  RH  038%=      5-min Rain = 0
KAM3 200522Z 18014KT 30/14 A299 RMK A01 T02990141  RH  038%=      5-min Rain = 0
KAM3 200523Z 18013KT 30/14 A299 RMK A01 T02980141  RH  038%=      5-min Rain = 0
KAM3 200524Z 18012KT 30/14 A299 RMK A01 T02980141  RH  038%=      5-min Rain = 0
KAM3 200525Z 18012KT 30/14 A299 RMK A01 T02970141  RH  039%=      5-min Rain = 0
KAM3 200526Z 18012KT 30/14 A299 RMK A01 T02960141  RH  039%=      5-min Rain = 0
KAM3 200527Z 17014KT 30/14 A299 RMK A01 T02960141  RH  039%=      5-min Rain = 0
KAM3 200528Z 17012KT 30/14 A299 RMK A01 T02960141  RH  039%=      5-min Rain = 0
KAM3 200529Z 17011KT 30/14 A299 RMK A01 T02950141  RH  039%=      5-min Rain = 0
KAM3 200530Z 17013KT 30/14 A299 RMK A01 T02950142  RH  039%=      5-min Rain = 0
KAM3 200531Z 18012KT 29/14 A299 RMK A01 T02940142  RH  039%=      5-min Rain = 0
KAM3 200532Z 17012KT 29/14 A299 RMK A01 T02930142  RH  039%=      5-min Rain = 0
KAM3 200533Z 17013KT 29/14 A299 RMK A01 T02930142  RH  040%=      5-min Rain = 0
KAM3 200534Z 17013KT 29/14 A299 RMK A01 T02930142  RH  040%=      5-min Rain = 0
KAM3 200535Z 17013KT 29/14 A299 RMK A01 T02920141  RH  040%=      5-min Rain = 0
KAM3 200536Z 17013KT 29/14 A299 RMK A01 T02920141  RH  040%=      5-min Rain = 0
KAM3 200537Z 17013KT 29/14 A299 RMK A01 T02920141  RH  040%=      5-min Rain = 0
KAM3 200538Z 18012KT 29/14 A299 RMK A01 T02920142  RH  040%=      5-min Rain = 0
KAM3 200539Z 17013KT 29/14 A299 RMK A01 T02920142  RH  040%=      5-min Rain = 0
KAM3 200540Z 17013KT 29/14 A299 RMK A01 T02910142  RH  040%=      5-min Rain = 0
KAM3 200541Z 17012G17KT 29/14 A299 RMK A01 T02910142  RH  040%=      5-min Rain = 0
KAM3 200542Z 18014G19KT 29/14 A299 RMK A01 T02910142  RH  040%=      5-min Rain = 0
KAM3 200543Z 17014KT 29/14 A299 RMK A01 T02910141  RH  040%=      5-min Rain = 0
KAM3 200544Z 17013KT 29/14 A299 RMK A01 T02910142  RH  040%=      5-min Rain = 0
KAM3 200545Z 17011KT 29/14 A299 RMK A01 T02910142  RH  040%=      5-min Rain = 0
KAM3 200546Z 17012KT 29/14 A299 RMK A01 T02910142  RH  040%=      5-min Rain = 0
KAM3 200547Z 18013KT 29/14 A299 RMK A01 T02900142  RH  040%=      5-min Rain = 0
KAM3 200548Z 18012KT 29/14 A299 RMK A01 T02900142  RH  040%=      5-min Rain = 0
KAM3 200549Z 18015KT 29/14 A299 RMK A01 T02900142  RH  040%=      5-min Rain = 0
KAM3 200550Z 18014KT 29/14 A299 RMK A01 T02900142  RH  040%=      5-min Rain = 0
KAM3 200551Z 18014G19KT 29/14 A299 RMK A01 T02900142  RH  040%=      5-min Rain = 0
KAM3 200552Z 18016KT 29/14 A299 RMK A01 T02900142  RH  040%=      5-min Rain = 0
KAM3 200553Z 18015G20KT 29/14 A299 RMK A01 T02900142  RH  040%=      5-min Rain = 0
KAM3 200554Z 17016G21KT 29/14 A299 RMK A01 T02910142  RH  040%=      5-min Rain = 0
KAM3 200555Z 17018KT 29/14 A299 RMK A01 T02920142  RH  040%=      5-min Rain = 0
KAM3 200556Z 17015KT 29/14 A299 RMK A01 T02930142  RH  040%=      5-min Rain = 0
KAM3 200557Z 17013KT 29/14 A299 RMK A01 T02930142  RH  040%=      5-min Rain = 0
KAM3 200558Z 18014G19KT 29/14 A299 RMK A01 T02930143  RH  040%=      5-min Rain = 0
KAM3 200559Z 17014KT 29/14 A299 RMK A01 T02920143  RH  040%=      5-min Rain = 0
KAM3 200600Z 18014KT 29/14 A299 RMK A01 T02920142  RH  040%=      5-min Rain = 0
KAM3 200601Z 18011KT 29/14 A299 RMK A01 T02920143  RH  040%=      5-min Rain = 0
KAM3 200602Z 18014KT 29/14 A299 RMK A01 T02900143  RH  040%=      5-min Rain = 0
KAM3 200603Z 18014KT 29/14 A299 RMK A01 T02890143  RH  041%=      5-min Rain = 0
KAM3 200604Z 18014KT 29/14 A299 RMK A01 T02890143  RH  041%=      5-min Rain = 0
KAM3 200605Z 18014KT 29/14 A299 RMK A01 T02890143  RH  041%=      5-min Rain = 0
KAM3 200606Z 18015KT 29/14 A299 RMK A01 T02890143  RH  041%=      5-min Rain = 0
KAM3 200607Z 18016KT 29/14 A299 RMK A01 T02890143  RH  041%=      5-min Rain = 0
KAM3 200608Z 18015KT 29/14 A299 RMK A01 T02900143  RH  041%=      5-min Rain = 0
KAM3 200609Z 18014G19KT 29/14 A299 RMK A01 T02900143  RH  041%=      5-min Rain = 0
KAM3 200610Z 17015KT 29/14 A299 RMK A01 T02900143  RH  041%=      5-min Rain = 0
KAM3 200611Z 18015KT 29/14 A299 RMK A01 T02900143  RH  041%=      5-min Rain = 0
KAM3 200612Z 18015KT 29/14 A299 RMK A01 T02900143  RH  041%=      5-min Rain = 0
KAM3 200613Z 18016KT 29/14 A299 RMK A01 T02900143  RH  041%=      5-min Rain = 0
KAM3 200614Z 17013KT 29/14 A299 RMK A01 T02900143  RH  041%=      5-min Rain = 0
KAM3 200615Z 18014KT 29/14 A299 RMK A01 T02890143  RH  041%=      5-min Rain = 0
KAM3 200616Z 18015KT 29/14 A299 RMK A01 T02890143  RH  041%=      5-min Rain = 0
KAM3 200617Z 18014KT 29/14 A299 RMK A01 T02890143  RH  041%=      5-min Rain = 0
KAM3 200618Z 17013KT 29/14 A299 RMK A01 T02890143  RH  041%=      5-min Rain = 0
KAM3 200619Z 18012KT 29/14 A299 RMK A01 T02890144  RH  041%=      5-min Rain = 0
KAM3 200620Z 18014KT 29/14 A299 RMK A01 T02880144  RH  041%=      5-min Rain = 0
KAM3 200621Z 18012KT 29/14 A299 RMK A01 T02870144  RH  042%=      5-min Rain = 0
KAM3 200622Z 18013KT 29/14 A299 RMK A01 T02860144  RH  042%=      5-min Rain = 0
KAM3 200623Z 18013KT 29/14 A299 RMK A01 T02860144  RH  042%=      5-min Rain = 0
KAM3 200624Z 18014KT 29/14 A299 RMK A01 T02860144  RH  042%=      5-min Rain = 0
KAM3 200625Z 18013KT 29/14 A299 RMK A01 T02860144  RH  042%=      5-min Rain = 0
KAM3 200626Z 18015KT 29/14 A299 RMK A01 T02870144  RH  042%=      5-min Rain = 0
KAM3 200627Z 18014KT 29/14 A299 RMK A01 T02870144  RH  042%=      5-min Rain = 0
KAM3 200628Z 18015KT 29/14 A299 RMK A01 T02880144  RH  041%=      5-min Rain = 0
KAM3 200629Z 18014KT 29/14 A299 RMK A01 T02890144  RH  041%=      5-min Rain = 0
KAM3 200630Z 18015KT 29/15 A299 RMK A01 T02890145  RH  041%=      5-min Rain = 0
KAM3 200631Z 18014KT 29/14 A299 RMK A01 T02890144  RH  041%=      5-min Rain = 0
KAM3 200632Z 18015KT 29/15 A299 RMK A01 T02900145  RH  041%=      5-min Rain = 0
KAM3 200633Z 18014KT 29/15 A299 RMK A01 T02900145  RH  041%=      5-min Rain = 0
KAM3 200634Z 18013KT 29/15 A299 RMK A01 T02900145  RH  041%=      5-min Rain = 0
KAM3 200635Z 18014KT 29/15 A299 RMK A01 T02900145  RH  041%=      5-min Rain = 0
KAM3 200636Z 18013KT 29/15 A299 RMK A01 T02890145  RH  041%=      5-min Rain = 0
KAM3 200637Z 18014KT 29/15 A299 RMK A01 T02890145  RH  041%=      5-min Rain = 0
KAM3 200638Z 18015G21KT 29/15 A299 RMK A01 T02890145  RH  041%=      5-min Rain = 0
KAM3 200639Z 18013KT 29/15 A299 RMK A01 T02890145  RH  042%=      5-min Rain = 0
KAM3 200640Z 18015KT 29/15 A299 RMK A01 T02890145  RH  041%=      5-min Rain = 0
KAM3 200641Z 18017KT 29/15 A299 RMK A01 T02890145  RH  041%=      5-min Rain = 0
KAM3 200642Z 18014KT 29/15 A299 RMK A01 T02890145  RH  041%=      5-min Rain = 0
KAM3 200643Z 18016KT 29/15 A299 RMK A01 T02890145  RH  041%=      5-min Rain = 0
KAM3 200644Z 18018KT 29/15 A299 RMK A01 T02890145  RH  041%=      5-min Rain = 0
KAM3 200645Z 18014KT 29/15 A299 RMK A01 T02890145  RH  041%=      5-min Rain = 0
KAM3 200646Z 18016KT 29/15 A299 RMK A01 T02890145  RH  041%=      5-min Rain = 0
KAM3 200647Z 18015G22KT 29/15 A299 RMK A01 T02890145  RH  041%=      5-min Rain = 0
KAM3 200648Z 18016KT 29/15 A299 RMK A01 T02890145  RH  041%=      5-min Rain = 0
KAM3 200649Z 18014KT 29/15 A299 RMK A01 T02900145  RH  041%=      5-min Rain = 0
KAM3 200650Z 18017KT 29/15 A299 RMK A01 T02900145  RH  041%=      5-min Rain = 0
KAM3 200651Z 18013KT 29/15 A299 RMK A01 T02890145  RH  041%=      5-min Rain = 0
KAM3 200652Z 18015KT 29/15 A299 RMK A01 T02880145  RH  042%=      5-min Rain = 0
KAM3 200653Z 18017KT 29/15 A299 RMK A01 T02880145  RH  042%=      5-min Rain = 0
KAM3 200654Z 18014G20KT 29/15 A299 RMK A01 T02880145  RH  042%=      5-min Rain = 0
KAM3 200655Z 18017KT 29/15 A299 RMK A01 T02880145  RH  041%=      5-min Rain = 0
KAM3 200656Z 18016KT 29/15 A299 RMK A01 T02890145  RH  041%=      5-min Rain = 0
KAM3 200657Z 18015KT 29/15 A299 RMK A01 T02890145  RH  041%=      5-min Rain = 0
KAM3 200658Z 18016G24KT 29/15 A299 RMK A01 T02880145  RH  041%=      5-min Rain = 0
KAM3 200659Z 18019KT 29/14 A299 RMK A01 T02890144  RH  041%=      5-min Rain = 0
KAM3 200700Z 18018KT 29/14 A299 RMK A01 T02890144  RH  041%=      5-min Rain = 0
KAM3 200701Z 18018KT 29/14 A299 RMK A01 T02900144  RH  041%=      5-min Rain = 0
KAM3 200702Z 18018KT 29/15 A299 RMK A01 T02900145  RH  041%=      5-min Rain = 0
KAM3 200703Z 18018KT 29/14 A299 RMK A01 T02900144  RH  041%=      5-min Rain = 0
KAM3 200704Z 18015G20KT 29/14 A299 RMK A01 T02900144  RH  041%=      5-min Rain = 0
KAM3 200705Z 18017KT 29/14 A299 RMK A01 T02900144  RH  041%=      5-min Rain = 0
KAM3 200706Z 18015KT 29/14 A299 RMK A01 T02890144  RH  041%=      5-min Rain = 0
KAM3 200707Z 18014KT 29/15 A299 RMK A01 T02890145  RH  041%=      5-min Rain = 0
KAM3 200708Z 18015KT 29/15 A299 RMK A01 T02890145  RH  041%=      5-min Rain = 0
KAM3 200709Z 18015G21KT 29/14 A299 RMK A01 T02880144  RH  041%=      5-min Rain = 0
KAM3 200710Z 18014KT 29/14 A299 RMK A01 T02880144  RH  042%=      5-min Rain = 0
KAM3 200711Z 18015KT 29/14 A299 RMK A01 T02870144  RH  042%=      5-min Rain = 0
KAM3 200712Z 18018KT 29/14 A299 RMK A01 T02870144  RH  042%=      5-min Rain = 0
KAM3 200713Z 18017KT 29/14 A299 RMK A01 T02870144  RH  041%=      5-min Rain = 0
KAM3 200714Z 18015KT 29/14 A299 RMK A01 T02880144  RH  041%=      5-min Rain = 0
KAM3 200715Z 18016KT 29/14 A299 RMK A01 T02880144  RH  041%=      5-min Rain = 0
KAM3 200716Z 18014KT 29/14 A299 RMK A01 T02870144  RH  041%=      5-min Rain = 0
KAM3 200717Z 18016G21KT 29/14 A2989 RMK A01 T02870143  RH  042%=      5-min Rain = 0
KAM3 200718Z 18018G23KT 29/14 A2989 RMK A01 T02860143  RH  042%=      5-min Rain = 0
KAM3 200719Z 19015G20KT 29/14 A299 RMK A01 T02870143  RH  042%=      5-min Rain = 0
KAM3 200720Z 18016G21KT 29/14 A299 RMK A01 T02860143  RH  042%=      5-min Rain = 0
KAM3 200721Z 18017KT 29/14 A2989 RMK A01 T02860143  RH  042%=      5-min Rain = 0
KAM3 200722Z 18017KT 29/14 A2989 RMK A01 T02860143  RH  041%=      5-min Rain = 0
KAM3 200723Z 18013KT 29/14 A299 RMK A01 T02860143  RH  041%=      5-min Rain = 0
KAM3 200724Z 18016KT 29/14 A299 RMK A01 T02860143  RH  042%=      5-min Rain = 0
KAM3 200725Z 18017KT 29/14 A2989 RMK A01 T02850142  RH  042%=      5-min Rain = 0
KAM3 200726Z 18016KT 29/14 A299 RMK A01 T02860142  RH  041%=      5-min Rain = 0
KAM3 200727Z 18016G21KT 29/14 A2989 RMK A01 T02860142  RH  041%=      5-min Rain = 0
KAM3 200728Z 18014KT 29/14 A299 RMK A01 T02860142  RH  041%=      5-min Rain = 0
KAM3 200729Z 18017KT 29/14 A299 RMK A01 T02860142  RH  041%=      5-min Rain = 0
KAM3 200730Z 18016KT 29/14 A299 RMK A01 T02850142  RH  041%=      5-min Rain = 0
KAM3 200731Z 18015KT 29/14 A299 RMK A01 T02850142  RH  041%=      5-min Rain = 0
KAM3 200732Z 18014KT 29/14 A299 RMK A01 T02850142  RH  042%=      5-min Rain = 0
KAM3 200733Z 18014KT 28/14 A299 RMK A01 T02840142  RH  042%=      5-min Rain = 0
KAM3 200734Z 17016G21KT 28/14 A299 RMK A01 T02840142  RH  042%=      5-min Rain = 0
KAM3 200735Z 18018G26KT 28/14 A299 RMK A01 T02840142  RH  042%=      5-min Rain = 0
KAM3 200736Z 18018G23KT 28/14 A299 RMK A01 T02840141  RH  042%=      5-min Rain = 0
KAM3 200737Z 18017G22KT 28/14 A299 RMK A01 T02840141  RH  042%=      5-min Rain = 0
KAM3 200738Z 18019KT 28/14 A299 RMK A01 T02840141  RH  042%=      5-min Rain = 0
KAM3 200739Z 18017KT 28/14 A299 RMK A01 T02840141  RH  042%=      5-min Rain = 0
KAM3 200740Z 18013KT 28/14 A299 RMK A01 T02840141  RH  042%=      5-min Rain = 0
KAM3 200741Z 18015KT 28/14 A299 RMK A01 T02830141  RH  042%=      5-min Rain = 0
KAM3 200742Z 18016KT 28/14 A299 RMK A01 T02820141  RH  042%=      5-min Rain = 0
KAM3 200743Z 18016KT 28/14 A299 RMK A01 T02820141  RH  042%=      5-min Rain = 0
KAM3 200744Z 18013KT 28/14 A299 RMK A01 T02820141  RH  042%=      5-min Rain = 0
KAM3 200745Z 18014KT 28/14 A299 RMK A01 T02810141  RH  042%=      5-min Rain = 0
KAM3 200746Z 19017KT 28/14 A2989 RMK A01 T02800141  RH  042%=      5-min Rain = 0
KAM3 200747Z 19017KT 28/14 A299 RMK A01 T02800140  RH  042%=      5-min Rain = 0
KAM3 200748Z 18015KT 28/14 A2989 RMK A01 T02800140  RH  042%=      5-min Rain = 0
KAM3 200749Z 19017G22KT 28/14 A2989 RMK A01 T02810140  RH  042%=      5-min Rain = 0
KAM3 200750Z 18016KT 28/14 A2989 RMK A01 T02810140  RH  042%=      5-min Rain = 0
KAM3 200751Z 18016KT 28/14 A2989 RMK A01 T02810140  RH  042%=      5-min Rain = 0
KAM3 200752Z 18017KT 28/14 A2989 RMK A01 T02800140  RH  042%=      5-min Rain = 0
KAM3 200753Z 18018G24KT 28/14 A2989 RMK A01 T02810140  RH  042%=      5-min Rain = 0
KAM3 200754Z 19016G21KT 28/14 A2989 RMK A01 T02800139  RH  042%=      5-min Rain = 0
KAM3 200755Z 18015G20KT 28/14 A299 RMK A01 T02800139  RH  042%=      5-min Rain = 0
KAM3 200756Z 18017KT 28/14 A2989 RMK A01 T02800139  RH  042%=      5-min Rain = 0
KAM3 200757Z 19015KT 28/14 A2989 RMK A01 T02800139  RH  042%=      5-min Rain = 0
KAM3 200758Z 19017KT 28/14 A2989 RMK A01 T02800139  RH  042%=      5-min Rain = 0
KAM3 200759Z 18018KT 28/14 A2989 RMK A01 T02800139  RH  042%=      5-min Rain = 0
KAM3 200800Z 19017G22KT 28/14 A2989 RMK A01 T02790139  RH  042%=      5-min Rain = 0
KAM3 200801Z 19017KT 28/14 A2989 RMK A01 T02800139  RH  042%=      5-min Rain = 0
KAM3 200802Z 19018KT 28/14 A2989 RMK A01 T02800139  RH  042%=      5-min Rain = 0
KAM3 200803Z 19016KT 28/14 A2989 RMK A01 T02790138  RH  042%=      5-min Rain = 0
KAM3 200804Z 19019KT 28/14 A2989 RMK A01 T02800138  RH  042%=      5-min Rain = 0
KAM3 200805Z 18015KT 28/14 A2989 RMK A01 T02800138  RH  042%=      5-min Rain = 0
KAM3 200806Z 19017KT 28/14 A2989 RMK A01 T02790138  RH  042%=      5-min Rain = 0
KAM3 200807Z 19017G22KT 28/14 A2989 RMK A01 T02790138  RH  042%=      5-min Rain = 0
KAM3 200808Z 19016G21KT 28/14 A2989 RMK A01 T02780137  RH  042%=      5-min Rain = 0
KAM3 200809Z 19016KT 28/14 A2989 RMK A01 T02790137  RH  042%=      5-min Rain = 0
KAM3 200810Z 19017KT 28/14 A2989 RMK A01 T02780137  RH  042%=      5-min Rain = 0
KAM3 200811Z 19016KT 28/14 A2989 RMK A01 T02790137  RH  042%=      5-min Rain = 0
KAM3 200812Z 19017G23KT 28/14 A2989 RMK A01 T02780137  RH  042%=      5-min Rain = 0
KAM3 200813Z 19019KT 28/14 A2989 RMK A01 T02780136  RH  042%=      5-min Rain = 0
KAM3 200814Z 19018KT 28/14 A2989 RMK A01 T02800136  RH  041%=      5-min Rain = 0
KAM3 200815Z 19017G22KT 28/14 A2989 RMK A01 T02800136  RH  041%=      5-min Rain = 0
KAM3 200816Z 19017KT 28/14 A2989 RMK A01 T02800136  RH  041%=      5-min Rain = 0
KAM3 200817Z 19016G24KT 28/14 A2989 RMK A01 T02800136  RH  041%=      5-min Rain = 0
KAM3 200818Z 19017KT 28/14 A2989 RMK A01 T02790136  RH  041%=      5-min Rain = 0
KAM3 200819Z 19019KT 28/14 A2989 RMK A01 T02790136  RH  041%=      5-min Rain = 0
KAM3 200820Z 19018KT 28/14 A2989 RMK A01 T02790135  RH  041%=      5-min Rain = 0
KAM3 200821Z 19017KT 28/14 A2989 RMK A01 T02790135  RH  041%=      5-min Rain = 0
KAM3 200822Z 19016G21KT 28/14 A2989 RMK A01 T02790135  RH  041%=      5-min Rain = 0
KAM3 200823Z 19017G24KT 28/14 A2989 RMK A01 T02790135  RH  041%=      5-min Rain = 0
KAM3 200824Z 19019KT 28/14 A2989 RMK A01 T02780135  RH  041%=      5-min Rain = 0
KAM3 200825Z 19019KT 28/14 A2989 RMK A01 T02780135  RH  041%=      5-min Rain = 0
KAM3 200826Z 19018G23KT 28/13 A2989 RMK A01 T02780134  RH  041%=      5-min Rain = 0
KAM3 200827Z 19019KT 28/13 A2989 RMK A01 T02790134  RH  041%=      5-min Rain = 0
KAM3 200828Z 19019KT 28/13 A2989 RMK A01 T02790134  RH  041%=      5-min Rain = 0
KAM3 200829Z 19019KT 28/13 A2989 RMK A01 T02790134  RH  041%=      5-min Rain = 0
KAM3 200830Z 19020G25KT 28/13 A2989 RMK A01 T02790133  RH  041%=      5-min Rain = 0
KAM3 200831Z 19020KT 28/13 A2989 RMK A01 T02790133  RH  041%=      5-min Rain = 0
KAM3 200832Z 19018KT 28/13 A2989 RMK A01 T02800133  RH  041%=      5-min Rain = 0
KAM3 200833Z 19018G23KT 28/13 A2989 RMK A01 T02790133  RH  041%=      5-min Rain = 0
KAM3 200834Z 19016KT 28/13 A2989 RMK A01 T02790133  RH  041%=      5-min Rain = 0
KAM3 200835Z 19016G21KT 28/13 A2989 RMK A01 T02780134  RH  041%=      5-min Rain = 0
KAM3 200836Z 19021G27KT 28/13 A2989 RMK A01 T02770133  RH  041%=      5-min Rain = 0
KAM3 200837Z 19021G28KT 28/13 A2989 RMK A01 T02770132  RH  041%=      5-min Rain = 0
KAM3 200838Z 19018KT 28/13 A2989 RMK A01 T02780132  RH  041%=      5-min Rain = 0
KAM3 200839Z 19020G26KT 28/13 A2989 RMK A01 T02780132  RH  041%=      5-min Rain = 0
KAM3 200840Z 19017G24KT 28/13 A2989 RMK A01 T02780132  RH  041%=      5-min Rain = 0
KAM3 200841Z 19016G24KT 28/13 A2989 RMK A01 T02780132  RH  041%=      5-min Rain = 0
KAM3 200842Z 19018KT 28/13 A2989 RMK A01 T02770132  RH  041%=      5-min Rain = 0
KAM3 200843Z 19017G23KT 28/13 A2989 RMK A01 T02770132  RH  041%=      5-min Rain = 0
KAM3 200844Z 19016KT 28/13 A2989 RMK A01 T02770132  RH  041%=      5-min Rain = 0
KAM3 200845Z 19018G23KT 28/13 A2989 RMK A01 T02770131  RH  041%=      5-min Rain = 0
KAM3 200846Z 19016G21KT 28/13 A2989 RMK A01 T02760132  RH  041%=      5-min Rain = 0
KAM3 200847Z 19019KT 28/13 A2989 RMK A01 T02760131  RH  041%=      5-min Rain = 0
KAM3 200848Z 19020G25KT 28/13 A2989 RMK A01 T02750131  RH  041%=      5-min Rain = 0
KAM3 200849Z 19016KT 28/13 A2989 RMK A01 T02760131  RH  041%=      5-min Rain = 0
KAM3 200850Z 19017G22KT 28/13 A2989 RMK A01 T02760131  RH  041%=      5-min Rain = 0
KAM3 200851Z 19021KT 28/13 A2989 RMK A01 T02750131  RH  041%=      5-min Rain = 0
KAM3 200852Z 19019G24KT 28/13 A2989 RMK A01 T02760130  RH  041%=      5-min Rain = 0
KAM3 200853Z 19016KT 28/13 A2989 RMK A01 T02760130  RH  041%=      5-min Rain = 0
KAM3 200854Z 19016KT 28/13 A299 RMK A01 T02760130  RH  041%=      5-min Rain = 0
KAM3 200855Z 19017KT 28/13 A2989 RMK A01 T02750131  RH  041%=      5-min Rain = 0
KAM3 200856Z 19020G26KT 28/13 A2989 RMK A01 T02750130  RH  041%=      5-min Rain = 0
KAM3 200857Z 19021G27KT 28/13 A2989 RMK A01 T02750130  RH  041%=      5-min Rain = 0
KAM3 200858Z 19019KT 28/13 A2989 RMK A01 T02750130  RH  041%=      5-min Rain = 0
KAM3 200859Z 19018G23KT 28/13 A2989 RMK A01 T02750130  RH  041%=      5-min Rain = 0
KAM3 200900Z 19017KT 28/13 A2989 RMK A01 T02750130  RH  041%=      5-min Rain = 0
KAM3 200901Z 19019G25KT 27/13 A2989 RMK A01 T02740130  RH  041%=      5-min Rain = 0
KAM3 200902Z 19019KT 27/13 A2989 RMK A01 T02740130  RH  041%=      5-min Rain = 0
KAM3 200903Z 19017KT 27/13 A2989 RMK A01 T02740130  RH  041%=      5-min Rain = 0
KAM3 200904Z 19018G23KT 27/13 A2989 RMK A01 T02740130  RH  041%=      5-min Rain = 0
KAM3 200905Z 20017KT 27/13 A2989 RMK A01 T02740130  RH  041%=      5-min Rain = 0
KAM3 200906Z 19019G25KT 27/13 A299 RMK A01 T02730130  RH  041%=      5-min Rain = 0
KAM3 200907Z 19019KT 27/13 A2989 RMK A01 T02740130  RH  041%=      5-min Rain = 0
KAM3 200908Z 19017KT 27/13 A299 RMK A01 T02730130  RH  041%=      5-min Rain = 0
KAM3 200909Z 19020G25KT 27/13 A2989 RMK A01 T02730130  RH  041%=      5-min Rain = 0
KAM3 200910Z 19017KT 27/13 A299 RMK A01 T02730130  RH  041%=      5-min Rain = 0
KAM3 200911Z 19017KT 27/13 A299 RMK A01 T02720130  RH  041%=      5-min Rain = 0
KAM3 200912Z 19019G26KT 27/13 A299 RMK A01 T02720129  RH  041%=      5-min Rain = 0
KAM3 200913Z 20017G24KT 27/13 A299 RMK A01 T02720129  RH  041%=      5-min Rain = 0
KAM3 200914Z 20017KT 27/13 A299 RMK A01 T02710129  RH  041%=      5-min Rain = 0
KAM3 200915Z 19016KT 27/13 A2989 RMK A01 T02710130  RH  042%=      5-min Rain = 0
KAM3 200916Z 20019KT 27/13 A2989 RMK A01 T02700129  RH  042%=      5-min Rain = 0
KAM3 200917Z 19019G24KT 27/13 A2989 RMK A01 T02700129  RH  042%=      5-min Rain = 0
KAM3 200918Z 19018G25KT 27/13 A2989 RMK A01 T02700129  RH  042%=      5-min Rain = 0
KAM3 200919Z 19018KT 27/13 A2989 RMK A01 T02700129  RH  042%=      5-min Rain = 0
KAM3 200920Z 19015G20KT 27/13 A2989 RMK A01 T02700129  RH  042%=      5-min Rain = 0
KAM3 200921Z 19019G24KT 27/13 A2989 RMK A01 T02690129  RH  042%=      5-min Rain = 0
KAM3 200922Z 20016KT 27/13 A2989 RMK A01 T02690129  RH  042%=      5-min Rain = 0
KAM3 200923Z 20020G25KT 27/13 A2989 RMK A01 T02690129  RH  042%=      5-min Rain = 0
KAM3 200924Z 19020G25KT 27/13 A2989 RMK A01 T02690129  RH  042%=      5-min Rain = 0
KAM3 200925Z 20020G26KT 27/13 A2989 RMK A01 T02700129  RH  042%=      5-min Rain = 0
KAM3 200926Z 19018G23KT 27/13 A2989 RMK A01 T02700129  RH  042%=      5-min Rain = 0
KAM3 200927Z 19016G21KT 27/13 A2989 RMK A01 T02700129  RH  042%=      5-min Rain = 0
KAM3 200928Z 20020G27KT 27/13 A2989 RMK A01 T02690129  RH  042%=      5-min Rain = 0
KAM3 200929Z 20018KT 27/13 A2989 RMK A01 T02700129  RH  042%=      5-min Rain = 0
KAM3 200930Z 20021G27KT 27/13 A2989 RMK A01 T02690129  RH  042%=      5-min Rain = 0
KAM3 200931Z 20019G24KT 27/13 A2989 RMK A01 T02690129  RH  042%=      5-min Rain = 0
KAM3 200932Z 20017KT 27/13 A2989 RMK A01 T02690129  RH  042%=      5-min Rain = 0
KAM3 200933Z 20020G25KT 27/13 A2989 RMK A01 T02690129  RH  042%=      5-min Rain = 0
KAM3 200934Z 20018G23KT 27/13 A2989 RMK A01 T02680128  RH  042%=      5-min Rain = 0
KAM3 200935Z 20016G22KT 27/13 A2989 RMK A01 T02690129  RH  042%=      5-min Rain = 0
KAM3 200936Z 20019G24KT 27/13 A2989 RMK A01 T02680129  RH  042%=      5-min Rain = 0
KAM3 200937Z 20018KT 27/13 A2989 RMK A01 T02680129  RH  042%=      5-min Rain = 0
KAM3 200938Z 20018G25KT 27/13 A2989 RMK A01 T02680129  RH  042%=      5-min Rain = 0
KAM3 200939Z 20020G26KT 27/13 A2989 RMK A01 T02680129  RH  042%=      5-min Rain = 0
KAM3 200940Z 20019KT 27/13 A2989 RMK A01 T02680129  RH  042%=      5-min Rain = 0
KAM3 200941Z 20020KT 27/13 A2989 RMK A01 T02680128  RH  042%=      5-min Rain = 0
KAM3 200942Z 20020KT 27/13 A2989 RMK A01 T02680129  RH  042%=      5-min Rain = 0
KAM3 200943Z 20019G25KT 27/13 A2989 RMK A01 T02680128  RH  042%=      5-min Rain = 0
KAM3 200944Z 20021KT 27/13 A2989 RMK A01 T02680129  RH  042%=      5-min Rain = 0
KAM3 200945Z 19018G23KT 27/13 A2989 RMK A01 T02680129  RH  042%=      5-min Rain = 0
KAM3 200946Z 20019G24KT 27/13 A2989 RMK A01 T02680129  RH  042%=      5-min Rain = 0
KAM3 200947Z 20019KT 27/13 A2989 RMK A01 T02680129  RH  042%=      5-min Rain = 0
KAM3 200948Z 20020G25KT 27/13 A2989 RMK A01 T02670128  RH  042%=      5-min Rain = 0
KAM3 200949Z 20016G21KT 27/13 A2989 RMK A01 T02670128  RH  042%=      5-min Rain = 0
KAM3 200950Z 20016G21KT 27/13 A2989 RMK A01 T02670129  RH  042%=      5-min Rain = 0
KAM3 200951Z 20016G21KT 27/13 A2989 RMK A01 T02660129  RH  043%=      5-min Rain = 0
KAM3 200952Z 20019G24KT 27/13 A2989 RMK A01 T02650129  RH  043%=      5-min Rain = 0
KAM3 200953Z 20017KT 27/13 A2989 RMK A01 T02650128  RH  043%=      5-min Rain = 0
KAM3 200954Z 20017KT 27/13 A2989 RMK A01 T02650128  RH  043%=      5-min Rain = 0
KAM3 200955Z 20018G23KT 27/13 A2989 RMK A01 T02650129  RH  043%=      5-min Rain = 0
KAM3 200956Z 20016G22KT 27/13 A2989 RMK A01 T02650128  RH  043%=      5-min Rain = 0
KAM3 200957Z 20018KT 27/13 A2989 RMK A01 T02650128  RH  043%=      5-min Rain = 0
KAM3 200958Z 20016KT 27/13 A2989 RMK A01 T02650129  RH  043%=      5-min Rain = 0
KAM3 200959Z 20017KT 26/13 A2989 RMK A01 T02640128  RH  043%=      5-min Rain = 0
KAM3 201000Z 20018KT 26/13 A2989 RMK A01 T02640129  RH  043%=      5-min Rain = 0
KAM3 201001Z 20014G19KT 27/13 A2989 RMK A01 T02650129  RH  043%=      5-min Rain = 0
KAM3 201002Z 20014KT 26/13 A2989 RMK A01 T02640129  RH  043%=      5-min Rain = 0
KAM3 201003Z 20017G22KT 26/13 A2989 RMK A01 T02630129  RH  043%=      5-min Rain = 0
KAM3 201004Z 19017KT 26/13 A2989 RMK A01 T02630128  RH  043%=      5-min Rain = 0
KAM3 201005Z 20013KT 26/13 A2989 RMK A01 T02630129  RH  043%=      5-min Rain = 0
KAM3 201006Z 20018G25KT 26/13 A2989 RMK A01 T02620129  RH  044%=      5-min Rain = 0
KAM3 201007Z 20018KT 26/13 A2989 RMK A01 T02620129  RH  044%=      5-min Rain = 0
KAM3 201008Z 20018KT 26/13 A2989 RMK A01 T02620129  RH  043%=      5-min Rain = 0
KAM3 201009Z 20017KT 26/13 A299 RMK A01 T02630129  RH  043%=      5-min Rain = 0
KAM3 201010Z 20017G23KT 26/13 A299 RMK A01 T02630129  RH  043%=      5-min Rain = 0
KAM3 201011Z 20016KT 26/13 A299 RMK A01 T02620129  RH  044%=      5-min Rain = 0
KAM3 201012Z 20016KT 26/13 A299 RMK A01 T02620129  RH  044%=      5-min Rain = 0
KAM3 201013Z 20017KT 26/13 A299 RMK A01 T02620129  RH  044%=      5-min Rain = 0
KAM3 201014Z 20016KT 26/13 A299 RMK A01 T02620128  RH  044%=      5-min Rain = 0
KAM3 201015Z 21015KT 26/13 A299 RMK A01 T02610129  RH  044%=      5-min Rain = 0
KAM3 201016Z 21016KT 26/13 A299 RMK A01 T02610129  RH  044%=      5-min Rain = 0
KAM3 201017Z 21016KT 26/13 A299 RMK A01 T02600129  RH  044%=      5-min Rain = 0
KAM3 201018Z 20016KT 26/13 A299 RMK A01 T02600129  RH  044%=      5-min Rain = 0
KAM3 201019Z 21015KT 26/13 A299 RMK A01 T02600129  RH  044%=      5-min Rain = 0
KAM3 201020Z 20014KT 26/13 A299 RMK A01 T02600129  RH  044%=      5-min Rain = 0
KAM3 201021Z 21014KT 26/13 A299 RMK A01 T02590129  RH  044%=      5-min Rain = 0
KAM3 201022Z 21015KT 26/13 A299 RMK A01 T02590130  RH  045%=      5-min Rain = 0
KAM3 201023Z 21014KT 26/13 A299 RMK A01 T02590129  RH  045%=      5-min Rain = 0
KAM3 201024Z 20015KT 26/13 A299 RMK A01 T02580129  RH  045%=      5-min Rain = 0
KAM3 201025Z 20014KT 26/13 A299 RMK A01 T02580129  RH  045%=      5-min Rain = 0
KAM3 201026Z 20014G19KT 26/13 A299 RMK A01 T02580130  RH  045%=      5-min Rain = 0
KAM3 201027Z 21014KT 26/13 A299 RMK A01 T02580129  RH  045%=      5-min Rain = 0
KAM3 201028Z 20014G20KT 26/13 A299 RMK A01 T02570129  RH  045%=      5-min Rain = 0
KAM3 201029Z 21015KT 26/13 A299 RMK A01 T02570130  RH  045%=      5-min Rain = 0
KAM3 201030Z 21013KT 26/13 A299 RMK A01 T02570129  RH  045%=      5-min Rain = 0
KAM3 201031Z 20017G22KT 26/13 A299 RMK A01 T02570129  RH  045%=      5-min Rain = 0
KAM3 201032Z 21017G23KT 26/13 A299 RMK A01 T02570129  RH  045%=      5-min Rain = 0
KAM3 201033Z 20015G20KT 26/13 A299 RMK A01 T02580129  RH  045%=      5-min Rain = 0
KAM3 201034Z 20013KT 26/13 A299 RMK A01 T02580129  RH  045%=      5-min Rain = 0
KAM3 201035Z 20014G19KT 26/13 A299 RMK A01 T02580129  RH  045%=      5-min Rain = 0
KAM3 201036Z 20014KT 26/13 A299 RMK A01 T02570130  RH  045%=      5-min Rain = 0
KAM3 201037Z 20014KT 26/13 A299 RMK A01 T02570130  RH  045%=      5-min Rain = 0
KAM3 201038Z 20013KT 26/13 A299 RMK A01 T02570129  RH  045%=      5-min Rain = 0
KAM3 201039Z 20014G19KT 26/13 A299 RMK A01 T02570130  RH  045%=      5-min Rain = 0
KAM3 201040Z 20014KT 26/13 A299 RMK A01 T02560130  RH  045%=      5-min Rain = 0
KAM3 201041Z 20015KT 26/13 A299 RMK A01 T02560130  RH  045%=      5-min Rain = 0
KAM3 201042Z 20014G20KT 26/13 A299 RMK A01 T02560130  RH  045%=      5-min Rain = 0
KAM3 201043Z 20013KT 26/13 A299 RMK A01 T02560130  RH  046%=      5-min Rain = 0
KAM3 201044Z 20015KT 26/13 A299 RMK A01 T02550130  RH  046%=      5-min Rain = 0
KAM3 201045Z 20013KT 26/13 A299 RMK A01 T02550129  RH  046%=      5-min Rain = 0
KAM3 201046Z 20014KT 26/13 A299 RMK A01 T02550130  RH  046%=      5-min Rain = 0
KAM3 201047Z 20013G18KT 26/13 A299 RMK A01 T02550130  RH  046%=      5-min Rain = 0
KAM3 201048Z 20014G19KT 26/13 A299 RMK A01 T02550130  RH  046%=      5-min Rain = 0
KAM3 201049Z 20012KT 26/13 A299 RMK A01 T02550130  RH  046%=      5-min Rain = 0
KAM3 201050Z 20014KT 26/13 A299 RMK A01 T02550130  RH  046%=      5-min Rain = 0
KAM3 201051Z 20013KT 26/13 A299 RMK A01 T02550130  RH  046%=      5-min Rain = 0
KAM3 201052Z 20014KT 25/13 A299 RMK A01 T02540130  RH  046%=      5-min Rain = 0
KAM3 201053Z 20012KT 25/13 A299 RMK A01 T02540130  RH  046%=      5-min Rain = 0
KAM3 201054Z 20013G18KT 25/13 A299 RMK A01 T02540130  RH  046%=      5-min Rain = 0
KAM3 201055Z 20013KT 25/13 A299 RMK A01 T02540130  RH  046%=      5-min Rain = 0
KAM3 201056Z 20013KT 25/13 A299 RMK A01 T02540130  RH  046%=      5-min Rain = 0
KAM3 201057Z 20013G18KT 25/13 A299 RMK A01 T02540130  RH  046%=      5-min Rain = 0
KAM3 201058Z 20015KT 25/13 A299 RMK A01 T02540130  RH  046%=      5-min Rain = 0
KAM3 201059Z 20014KT 25/13 A299 RMK A01 T02540130  RH  046%=      5-min Rain = 0
KAM3 201100Z 20014KT 25/13 A299 RMK A01 T02540130  RH  046%=      5-min Rain = 0
KAM3 201101Z 20015KT 25/13 A299 RMK A01 T02540130  RH  046%=      5-min Rain = 0
KAM3 201102Z 20016KT 25/13 A299 RMK A01 T02540130  RH  046%=      5-min Rain = 0
KAM3 201103Z 20015KT 26/13 A299 RMK A01 T02550130  RH  046%=      5-min Rain = 0
KAM3 201104Z 20014KT 25/13 A299 RMK A01 T02540130  RH  046%=      5-min Rain = 0
KAM3 201105Z 19013KT 25/13 A299 RMK A01 T02540130  RH  046%=      5-min Rain = 0
KAM3 201106Z 20015KT 26/13 A299 RMK A01 T02550130  RH  046%=      5-min Rain = 0
KAM3 201107Z 20012KT 25/13 A299 RMK A01 T02540130  RH  046%=      5-min Rain = 0
KAM3 201108Z 19015KT 25/13 A299 RMK A01 T02530130  RH  046%=      5-min Rain = 0
KAM3 201109Z 20013KT 25/13 A299 RMK A01 T02540130  RH  046%=      5-min Rain = 0
KAM3 201110Z 20016KT 25/13 A299 RMK A01 T02530130  RH  046%=      5-min Rain = 0
KAM3 201111Z 20013KT 25/13 A299 RMK A01 T02530130  RH  046%=      5-min Rain = 0
KAM3 201112Z 20013KT 25/13 A299 RMK A01 T02530130  RH  046%=      5-min Rain = 0
KAM3 201113Z 19016G21KT 25/13 A299 RMK A01 T02530130  RH  046%=      5-min Rain = 0
KAM3 201114Z 19017KT 25/13 A299 RMK A01 T02530130  RH  046%=      5-min Rain = 0
KAM3 201115Z 19016KT 25/13 A299 RMK A01 T02540130  RH  046%=      5-min Rain = 0
KAM3 201116Z 19014KT 25/13 A299 RMK A01 T02540129  RH  046%=      5-min Rain = 0
KAM3 201117Z 20013KT 25/13 A299 RMK A01 T02540130  RH  046%=      5-min Rain = 0
KAM3 201118Z 19015G21KT 25/13 A299 RMK A01 T02540130  RH  046%=      5-min Rain = 0
KAM3 201119Z 19014KT 25/13 A299 RMK A01 T02530130  RH  046%=      5-min Rain = 0
KAM3 201120Z 19016KT 25/13 A299 RMK A01 T02520130  RH  046%=      5-min Rain = 0
KAM3 201121Z 19014KT 25/13 A299 RMK A01 T02520130  RH  046%=      5-min Rain = 0
KAM3 201122Z 19015KT 25/13 A299 RMK A01 T02520130  RH  047%=      5-min Rain = 0
KAM3 201123Z 19015G21KT 25/13 A299 RMK A01 T02510129  RH  047%=      5-min Rain = 0
KAM3 201124Z 20014KT 25/13 A299 RMK A01 T02510130  RH  047%=      5-min Rain = 0
KAM3 201125Z 19013G19KT 25/13 A299 RMK A01 T02510130  RH  047%=      5-min Rain = 0
KAM3 201126Z 19014KT 25/13 A299 RMK A01 T02500130  RH  047%=      5-min Rain = 0
KAM3 201127Z 20012KT 25/13 A299 RMK A01 T02490130  RH  047%=      5-min Rain = 0
KAM3 201128Z 19015KT 25/13 A299 RMK A01 T02490130  RH  048%=      5-min Rain = 0
KAM3 201129Z 19014KT 25/13 A299 RMK A01 T02490130  RH  048%=      5-min Rain = 0
KAM3 201130Z 19014KT 25/13 A299 RMK A01 T02490130  RH  047%=      5-min Rain = 0
KAM3 201131Z 19014G19KT 25/13 A299 RMK A01 T02490129  RH  047%=      5-min Rain = 0
KAM3 201132Z 19014KT 25/13 A299 RMK A01 T02500130  RH  047%=      5-min Rain = 0
KAM3 201133Z 19014KT 25/13 A299 RMK A01 T02500130  RH  047%=      5-min Rain = 0
KAM3 201134Z 20018KT 25/13 A299 RMK A01 T02500130  RH  047%=      5-min Rain = 0
KAM3 201135Z 19015G20KT 25/13 A299 RMK A01 T02500130  RH  047%=      5-min Rain = 0
KAM3 201136Z 19016KT 25/13 A299 RMK A01 T02500130  RH  047%=      5-min Rain = 0
KAM3 201137Z 19016KT 25/13 A299 RMK A01 T02500130  RH  047%=      5-min Rain = 0
KAM3 201138Z 19014KT 25/13 A299 RMK A01 T02500130  RH  047%=      5-min Rain = 0
KAM3 201139Z 20014G19KT 25/13 A299 RMK A01 T02500130  RH  047%=      5-min Rain = 0
KAM3 201140Z 19016KT 25/13 A299 RMK A01 T02490130  RH  047%=      5-min Rain = 0
KAM3 201141Z 19014G19KT 25/13 A299 RMK A01 T02490130  RH  047%=      5-min Rain = 0
KAM3 201142Z 19014KT 25/13 A299 RMK A01 T02490130  RH  047%=      5-min Rain = 0
KAM3 201143Z 19014KT 25/13 A299 RMK A01 T02490129  RH  047%=      5-min Rain = 0
KAM3 201144Z 19016KT 25/13 A299 RMK A01 T02490129  RH  047%=      5-min Rain = 0
KAM3 201145Z 19016KT 25/13 A299 RMK A01 T02490130  RH  047%=      5-min Rain = 0
KAM3 201146Z 19015KT 25/13 A299 RMK A01 T02500130  RH  047%=      5-min Rain = 0
KAM3 201147Z 19014KT 25/13 A299 RMK A01 T02500130  RH  047%=      5-min Rain = 0
KAM3 201148Z 19013KT 25/13 A299 RMK A01 T02490130  RH  047%=      5-min Rain = 0
KAM3 201149Z 19013KT 25/13 A299 RMK A01 T02490130  RH  048%=      5-min Rain = 0
KAM3 201150Z 19013KT 25/13 A299 RMK A01 T02480130  RH  048%=      5-min Rain = 0
KAM3 201151Z 19013G18KT 25/13 A299 RMK A01 T02480130  RH  048%=      5-min Rain = 0
KAM3 201152Z 19013KT 25/13 A299 RMK A01 T02480130  RH  048%=      5-min Rain = 0
KAM3 201153Z 19013KT 25/13 A299 RMK A01 T02480130  RH  048%=      5-min Rain = 0
KAM3 201154Z 19013KT 25/13 A299 RMK A01 T02470131  RH  048%=      5-min Rain = 0
KAM3 201155Z 19013KT 25/13 A299 RMK A01 T02470130  RH  048%=      5-min Rain = 0
KAM3 201156Z 19014KT 25/13 A299 RMK A01 T02470130  RH  048%=      5-min Rain = 0
KAM3 201157Z 19015G20KT 25/13 A299 RMK A01 T02470130  RH  048%=      5-min Rain = 0
KAM3 201158Z 19016KT 25/13 A299 RMK A01 T02470130  RH  048%=      5-min Rain = 0
KAM3 201159Z 19014KT 25/13 A299 RMK A01 T02480130  RH  048%=      5-min Rain = 0
KAM3 201200Z 19015G20KT 25/13 A299 RMK A01 T02480130  RH  048%=      5-min Rain = 0
KAM3 201201Z 19014KT 25/13 A299 RMK A01 T02480130  RH  048%=      5-min Rain = 0
KAM3 201202Z 19015KT 25/13 A299 RMK A01 T02480130  RH  048%=      5-min Rain = 0
KAM3 201203Z 20012KT 25/13 A2991 RMK A01 T02480130  RH  048%=      5-min Rain = 0
KAM3 201204Z 19012KT 25/13 A2991 RMK A01 T02480131  RH  048%=      5-min Rain = 0
KAM3 201205Z 19013KT 25/13 A2991 RMK A01 T02470131  RH  048%=      5-min Rain = 0
KAM3 201206Z 19012KT 25/13 A2991 RMK A01 T02470131  RH  048%=      5-min Rain = 0
KAM3 201207Z 19013KT 25/13 A2991 RMK A01 T02470131  RH  048%=      5-min Rain = 0
KAM3 201208Z 19015KT 25/13 A2991 RMK A01 T02470131  RH  048%=      5-min Rain = 0
KAM3 201209Z 19012KT 25/13 A2991 RMK A01 T02460130  RH  048%=      5-min Rain = 0
KAM3 201210Z 19013KT 25/13 A2991 RMK A01 T02470131  RH  049%=      5-min Rain = 0
KAM3 201211Z 19013KT 25/13 A2991 RMK A01 T02460131  RH  049%=      5-min Rain = 0
KAM3 201212Z 19013KT 25/13 A2991 RMK A01 T02460131  RH  049%=      5-min Rain = 0
KAM3 201213Z 19011KT 25/13 A2991 RMK A01 T02460131  RH  049%=      5-min Rain = 0
KAM3 201214Z 19010KT 25/13 A2991 RMK A01 T02460131  RH  049%=      5-min Rain = 0
KAM3 201215Z 19009KT 25/13 A2991 RMK A01 T02460132  RH  049%=      5-min Rain = 0
KAM3 201216Z 20013KT 25/13 A2991 RMK A01 T02450132  RH  049%=      5-min Rain = 0
KAM3 201217Z 19011KT 25/13 A2991 RMK A01 T02450132  RH  049%=      5-min Rain = 0
KAM3 201218Z 20010KT 25/13 A2991 RMK A01 T02450131  RH  049%=      5-min Rain = 0
KAM3 201219Z 19011KT 25/13 A2991 RMK A01 T02460131  RH  049%=      5-min Rain = 0
KAM3 201220Z 19011KT 25/13 A2991 RMK A01 T02460132  RH  049%=      5-min Rain = 0
KAM3 201221Z 19012KT 25/13 A2991 RMK A01 T02460132  RH  049%=      5-min Rain = 0
KAM3 201222Z 20011KT 25/13 A2991 RMK A01 T02470132  RH  049%=      5-min Rain = 0
KAM3 201223Z 20009KT 25/13 A2991 RMK A01 T02470132  RH  049%=      5-min Rain = 0
KAM3 201224Z 20011KT 25/13 A2991 RMK A01 T02470132  RH  049%=      5-min Rain = 0
KAM3 201225Z 20010KT 25/13 A2991 RMK A01 T02480132  RH  048%=      5-min Rain = 0
KAM3 201226Z 20008KT 25/13 A2991 RMK A01 T02480132  RH  049%=      5-min Rain = 0
KAM3 201227Z 21008KT 25/13 A2991 RMK A01 T02480133  RH  049%=      5-min Rain = 0
KAM3 201228Z 20009KT 25/13 A2991 RMK A01 T02480133  RH  048%=      5-min Rain = 0
KAM3 201229Z 21008KT 25/13 A2991 RMK A01 T02490133  RH  049%=      5-min Rain = 0
KAM3 201230Z 22007KT 25/13 A2991 RMK A01 T02490133  RH  048%=      5-min Rain = 0
KAM3 201231Z 21007KT 25/13 A2991 RMK A01 T02490133  RH  049%=      5-min Rain = 0
KAM3 201232Z 21008KT 25/13 A2991 RMK A01 T02490133  RH  048%=      5-min Rain = 0
KAM3 201233Z 21008KT 25/13 A2991 RMK A01 T02500133  RH  048%=      5-min Rain = 0
KAM3 201234Z 21006KT 25/13 A2991 RMK A01 T02500133  RH  048%=      5-min Rain = 0
KAM3 201235Z 21005KT 25/13 A2992 RMK A01 T02510133  RH  048%=      5-min Rain = 0
KAM3 201236Z 24004KT 25/13 A2992 RMK A01 T02510134  RH  048%=      5-min Rain = 0
KAM3 201237Z 22006KT 25/14 A2992 RMK A01 T02510135  RH  048%=      5-min Rain = 0
KAM3 201238Z 21006KT 25/13 A2992 RMK A01 T02510134  RH  048%=      5-min Rain = 0
KAM3 201239Z 23004KT 25/13 A2992 RMK A01 T02510134  RH  048%=      5-min Rain = 0
KAM3 201240Z 24003KT 25/14 A2992 RMK A01 T02510135  RH  048%=      5-min Rain = 0
KAM3 201241Z 23007KT 25/13 A2992 RMK A01 T02510134  RH  048%=      5-min Rain = 0
KAM3 201242Z 23005KT 25/13 A2992 RMK A01 T02510134  RH  048%=      5-min Rain = 0
KAM3 201243Z 23005KT 25/14 A2992 RMK A01 T02520135  RH  048%=      5-min Rain = 0
KAM3 201244Z 24003KT 25/14 A2992 RMK A01 T02520135  RH  048%=      5-min Rain = 0
KAM3 201245Z 24002KT 25/14 A2992 RMK A01 T02520135  RH  048%=      5-min Rain = 0
KAM3 201246Z 22002KT 25/14 A2992 RMK A01 T02520135  RH  048%=      5-min Rain = 0
KAM3 201247Z 22002KT 25/14 A2992 RMK A01 T02530137  RH  049%=      5-min Rain = 0
KAM3 201248Z 22002KT 25/14 A2992 RMK A01 T02540136  RH  048%=      5-min Rain = 0
KAM3 201249Z 22002KT 25/14 A2992 RMK A01 T02540136  RH  048%=      5-min Rain = 0
KAM3 201250Z 21002KT 26/14 A2992 RMK A01 T02550137  RH  048%=      5-min Rain = 0
KAM3 201251Z 22003KT 26/14 A2992 RMK A01 T02560137  RH  048%=      5-min Rain = 0
KAM3 201252Z 20003KT 26/14 A2992 RMK A01 T02570138  RH  048%=      5-min Rain = 0
KAM3 201253Z 20003KT 26/14 A2992 RMK A01 T02570137  RH  047%=      5-min Rain = 0
KAM3 201254Z 18003KT 26/14 A2992 RMK A01 T02570138  RH  048%=      5-min Rain = 0
KAM3 201255Z 19005KT 26/14 A2992 RMK A01 T02580138  RH  047%=      5-min Rain = 0
KAM3 201256Z 20008KT 26/14 A2992 RMK A01 T02570136  RH  047%=      5-min Rain = 0
KAM3 201257Z 20005KT 26/14 A2992 RMK A01 T02580137  RH  047%=      5-min Rain = 0
KAM3 201258Z 19004KT 26/14 A2992 RMK A01 T02580138  RH  047%=      5-min Rain = 0
KAM3 201259Z 20003G9KT 26/14 A2992 RMK A01 T02580139  RH  048%=      5-min Rain = 0
KAM3 201300Z 20007KT 26/14 A2992 RMK A01 T02580138  RH  047%=      5-min Rain = 0
KAM3 201301Z 19007KT 26/14 A2992 RMK A01 T02590138  RH  047%=      5-min Rain = 0
KAM3 201302Z 21007KT 26/14 A2992 RMK A01 T02590137  RH  047%=      5-min Rain = 0
KAM3 201303Z 20007KT 26/14 A2992 RMK A01 T02590138  RH  047%=      5-min Rain = 0
KAM3 201304Z 20007KT 26/14 A2992 RMK A01 T02600138  RH  047%=      5-min Rain = 0
KAM3 201305Z 19011KT 26/14 A2992 RMK A01 T02600137  RH  047%=      5-min Rain = 0
KAM3 201306Z 20010KT 26/14 A2992 RMK A01 T02610138  RH  047%=      5-min Rain = 0
KAM3 201307Z 20007KT 26/14 A2992 RMK A01 T02610138  RH  047%=      5-min Rain = 0
KAM3 201308Z 20008KT 26/14 A2992 RMK A01 T02610139  RH  047%=      5-min Rain = 0
KAM3 201309Z 20009G14KT 26/14 A2992 RMK A01 T02610138  RH  047%=      5-min Rain = 0
KAM3 201310Z 20012KT 26/14 A2992 RMK A01 T02610138  RH  046%=      5-min Rain = 0
KAM3 201311Z 20010KT 26/14 A2992 RMK A01 T02620138  RH  046%=      5-min Rain = 0
KAM3 201312Z 19012G17KT 26/14 A2992 RMK A01 T02620139  RH  047%=      5-min Rain = 0
KAM3 201313Z 19012G18KT 26/14 A2992 RMK A01 T02630138  RH  046%=      5-min Rain = 0
KAM3 201314Z 19012KT 26/14 A2992 RMK A01 T02630138  RH  046%=      5-min Rain = 0
KAM3 201315Z 19014KT 26/14 A2992 RMK A01 T02640138  RH  046%=      5-min Rain = 0
KAM3 201316Z 20013KT 26/14 A2992 RMK A01 T02640138  RH  046%=      5-min Rain = 0
KAM3 201317Z 20011KT 26/14 A2992 RMK A01 T02640139  RH  046%=      5-min Rain = 0
KAM3 201318Z 19008G13KT 26/14 A2992 RMK A01 T02640140  RH  046%=      5-min Rain = 0
KAM3 201319Z 20009G14KT 27/14 A2992 RMK A01 T02650140  RH  046%=      5-min Rain = 0
KAM3 201320Z 19010KT 27/14 A2992 RMK A01 T02650140  RH  046%=      5-min Rain = 0
KAM3 201321Z 20009KT 27/14 A2992 RMK A01 T02660141  RH  046%=      5-min Rain = 0
KAM3 201322Z 19009KT 27/14 A2992 RMK A01 T02660141  RH  046%=      5-min Rain = 0
KAM3 201323Z 19010KT 27/14 A2992 RMK A01 T02660140  RH  046%=      5-min Rain = 0
KAM3 201324Z 19008KT 27/14 A2992 RMK A01 T02660140  RH  046%=      5-min Rain = 0
KAM3 201325Z 19012KT 27/14 A2992 RMK A01 T02670141  RH  046%=      5-min Rain = 0
KAM3 201326Z 19011G16KT 27/14 A2992 RMK A01 T02670141  RH  046%=      5-min Rain = 0
KAM3 201327Z 19013KT 27/14 A2992 RMK A01 T02680140  RH  045%=      5-min Rain = 0
KAM3 201328Z 20013KT 27/14 A2992 RMK A01 T02680140  RH  045%=      5-min Rain = 0
KAM3 201329Z 19015KT 27/14 A2992 RMK A01 T02680141  RH  045%=      5-min Rain = 0
KAM3 201330Z 19011KT 27/14 A2992 RMK A01 T02690140  RH  045%=      5-min Rain = 0
KAM3 201331Z 19013KT 27/14 A2992 RMK A01 T02690141  RH  045%=      5-min Rain = 0
KAM3 201332Z 19013KT 27/14 A2992 RMK A01 T02700141  RH  045%=      5-min Rain = 0
KAM3 201333Z 19012KT 27/14 A2992 RMK A01 T02700142  RH  045%=      5-min Rain = 0
KAM3 201334Z 19014G19KT 27/14 A2992 RMK A01 T02710141  RH  045%=      5-min Rain = 0
KAM3 201335Z 19016G22KT 27/14 A2992 RMK A01 T02710141  RH  045%=      5-min Rain = 0
KAM3 201336Z 19014KT 27/14 A2992 RMK A01 T02710141  RH  045%=      5-min Rain = 0
KAM3 201337Z 20016KT 27/14 A2992 RMK A01 T02720141  RH  045%=      5-min Rain = 0
KAM3 201338Z 20013KT 27/14 A2992 RMK A01 T02720141  RH  045%=      5-min Rain = 0
KAM3 201339Z 19012G18KT 27/14 A2992 RMK A01 T02720142  RH  045%=      5-min Rain = 0
KAM3 201340Z 20014G21KT 27/14 A2992 RMK A01 T02730143  RH  045%=      5-min Rain = 0
KAM3 201341Z 19014G20KT 27/14 A2992 RMK A01 T02730141  RH  044%=      5-min Rain = 0
KAM3 201342Z 19016KT 27/14 A2992 RMK A01 T02730142  RH  044%=      5-min Rain = 0
KAM3 201343Z 19018G23KT 27/14 A2991 RMK A01 T02730141  RH  044%=      5-min Rain = 0
KAM3 201344Z 19015G20KT 27/14 A2991 RMK A01 T02730141  RH  044%=      5-min Rain = 0
KAM3 201345Z 19018G24KT 27/14 A2991 RMK A01 T02740141  RH  044%=      5-min Rain = 0
KAM3 201346Z 19016KT 27/14 A2991 RMK A01 T02740142  RH  044%=      5-min Rain = 0
KAM3 201347Z 20018G23KT 28/14 A2991 RMK A01 T02750143  RH  044%=      5-min Rain = 0
KAM3 201348Z 19020KT 28/14 A2991 RMK A01 T02750142  RH  044%=      5-min Rain = 0
KAM3 201349Z 20015G21KT 28/14 A2991 RMK A01 T02750142  RH  044%=      5-min Rain = 0
KAM3 201350Z 20017G24KT 28/14 A2991 RMK A01 T02760143  RH  044%=      5-min Rain = 0
KAM3 201351Z 19018KT 28/14 A2991 RMK A01 T02760142  RH  044%=      5-min Rain = 0
KAM3 201352Z 19016G21KT 28/14 A2991 RMK A01 T02760142  RH  044%=      5-min Rain = 0
KAM3 201353Z 19017KT 28/14 A2991 RMK A01 T02760143  RH  044%=      5-min Rain = 0
KAM3 201354Z 19019KT 28/14 A2991 RMK A01 T02770143  RH  044%=      5-min Rain = 0
KAM3 201355Z 19016KT 28/14 A2991 RMK A01 T02770142  RH  044%=      5-min Rain = 0
KAM3 201356Z 19019G24KT 28/14 A2991 RMK A01 T02770143  RH  044%=      5-min Rain = 0
KAM3 201357Z 20020KT 28/14 A2991 RMK A01 T02770142  RH  043%=      5-min Rain = 0
KAM3 201358Z 19016G21KT 28/14 A2991 RMK A01 T02770143  RH  044%=      5-min Rain = 0
KAM3 201359Z 19018KT 28/14 A2991 RMK A01 T02780144  RH  044%=      5-min Rain = 0
KAM3 201400Z 19015KT 28/14 A2991 RMK A01 T02790144  RH  044%=      5-min Rain = 0
KAM3 201401Z 19019G25KT 28/15 A2991 RMK A01 T02800145  RH  044%=      5-min Rain = 0
KAM3 201402Z 19020KT 28/14 A2991 RMK A01 T02810144  RH  043%=      5-min Rain = 0
KAM3 201403Z 19018G23KT 28/14 A2991 RMK A01 T02800144  RH  043%=      5-min Rain = 0
KAM3 201404Z 19020KT 28/14 A2991 RMK A01 T02800144  RH  043%=      5-min Rain = 0
KAM3 201405Z 19019KT 28/14 A2991 RMK A01 T02800144  RH  043%=      5-min Rain = 0
KAM3 201406Z 19017G22KT 28/14 A2991 RMK A01 T02800143  RH  043%=      5-min Rain = 0
KAM3 201407Z 19018G23KT 28/14 A2991 RMK A01 T02800144  RH  043%=      5-min Rain = 0
KAM3 201408Z 19017KT 28/15 A2991 RMK A01 T02810145  RH  043%=      5-min Rain = 0
KAM3 201409Z 19019KT 28/15 A2991 RMK A01 T02820145  RH  043%=      5-min Rain = 0
KAM3 201410Z 18020KT 28/14 A2991 RMK A01 T02820144  RH  043%=      5-min Rain = 0
KAM3 201411Z 19016KT 28/15 A2991 RMK A01 T02820145  RH  043%=      5-min Rain = 0
KAM3 201412Z 19017KT 28/15 A2991 RMK A01 T02830146  RH  043%=      5-min Rain = 0
KAM3 201413Z 18017G22KT 28/15 A2991 RMK A01 T02830145  RH  043%=      5-min Rain = 0
KAM3 201414Z 19021KT 28/15 A2991 RMK A01 T02840145  RH  043%=      5-min Rain = 0
KAM3 201415Z 19018G24KT 28/14 A2991 RMK A01 T02840144  RH  042%=      5-min Rain = 0
KAM3 201416Z 19021KT 28/15 A2991 RMK A01 T02840145  RH  043%=      5-min Rain = 0
KAM3 201417Z 19020KT 28/14 A2991 RMK A01 T02840144  RH  043%=      5-min Rain = 0
KAM3 201418Z 20021KT 28/14 A2991 RMK A01 T02840144  RH  043%=      5-min Rain = 0
KAM3 201419Z 20019KT 28/15 A2991 RMK A01 T02840145  RH  043%=      5-min Rain = 0
KAM3 201420Z 19019G24KT 28/15 A2991 RMK A01 T02840145  RH  043%=      5-min Rain = 0
KAM3 201421Z 19022KT 29/15 A2991 RMK A01 T02850145  RH  042%=      5-min Rain = 0
KAM3 201422Z 20021G27KT 29/15 A2991 RMK A01 T02860145  RH  042%=      5-min Rain = 0
KAM3 201423Z 20020KT 29/15 A2991 RMK A01 T02850145  RH  042%=      5-min Rain = 0
KAM3 201424Z 20015KT 29/15 A2991 RMK A01 T02850147  RH  043%=      5-min Rain = 0
KAM3 201425Z 19018KT 29/15 A2991 RMK A01 T02860147  RH  043%=      5-min Rain = 0
KAM3 201426Z 19014G19KT 29/15 A2991 RMK A01 T02870147  RH  042%=      5-min Rain = 0
KAM3 201427Z 19018G23KT 29/15 A2991 RMK A01 T02880148  RH  042%=      5-min Rain = 0
KAM3 201428Z 20018G24KT 29/15 A2991 RMK A01 T02890147  RH  042%=      5-min Rain = 0
KAM3 201429Z 19016G21KT 29/15 A2991 RMK A01 T02890148  RH  042%=      5-min Rain = 0
KAM3 201430Z 19020KT 29/15 A2991 RMK A01 T02890147  RH  042%=      5-min Rain = 0
KAM3 201431Z 19020KT 29/15 A2991 RMK A01 T02890146  RH  042%=      5-min Rain = 0
KAM3 201432Z 19018G24KT 29/15 A2991 RMK A01 T02890147  RH  042%=      5-min Rain = 0
KAM3 201433Z 19023KT 29/15 A2991 RMK A01 T02890146  RH  042%=      5-min Rain = 0
KAM3 201434Z 19021KT 29/15 A2992 RMK A01 T02880146  RH  042%=      5-min Rain = 0
KAM3 201435Z 19021KT 29/15 A2992 RMK A01 T02880146  RH  042%=      5-min Rain = 0
KAM3 201436Z 19019KT 29/15 A2992 RMK A01 T02880145  RH  042%=      5-min Rain = 0
KAM3 201437Z 19018G23KT 29/15 A2992 RMK A01 T02890146  RH  042%=      5-min Rain = 0
KAM3 201438Z 19019G25KT 29/15 A2992 RMK A01 T02900147  RH  042%=      5-min Rain = 0
KAM3 201439Z 19017G24KT 29/15 A2992 RMK A01 T02900146  RH  042%=      5-min Rain = 0
KAM3 201440Z 19012G17KT 29/15 A2992 RMK A01 T02910149  RH  042%=      5-min Rain = 0
KAM3 201441Z 19017G22KT 29/15 A2992 RMK A01 T02930150  RH  042%=      5-min Rain = 0
KAM3 201442Z 19016KT 29/15 A2992 RMK A01 T02940148  RH  041%=      5-min Rain = 0
KAM3 201443Z 19017KT 29/15 A2992 RMK A01 T02940148  RH  041%=      5-min Rain = 0
KAM3 201444Z 19017KT 29/15 A2992 RMK A01 T02940147  RH  041%=      5-min Rain = 0
KAM3 201445Z 20016KT 29/15 A2992 RMK A01 T02930148  RH  041%=      5-min Rain = 0
KAM3 201446Z 20015G20KT 29/15 A2992 RMK A01 T02930148  RH  041%=      5-min Rain = 0
KAM3 201447Z 20017G22KT 29/15 A2992 RMK A01 T02940148  RH  041%=      5-min Rain = 0
KAM3 201448Z 19013KT 30/15 A2992 RMK A01 T02950147  RH  041%=      5-min Rain = 0
KAM3 201449Z 20010KT 30/15 A2992 RMK A01 T02950150  RH  041%=      5-min Rain = 0
KAM3 201450Z 20013KT 30/15 A2992 RMK A01 T02970149  RH  041%=      5-min Rain = 0
KAM3 201451Z 21010KT 30/15 A2992 RMK A01 T02980151  RH  041%=      5-min Rain = 0
KAM3 201452Z 21009G15KT 30/15 A2992 RMK A01 T02980150  RH  041%=      5-min Rain = 0
KAM3 201453Z 20008KT 30/15 A2992 RMK A01 T03000152  RH  041%=      5-min Rain = 0
KAM3 201454Z 19007G12KT 30/15 A2992 RMK A01 T03010152  RH  040%=      5-min Rain = 0
KAM3 201455Z 20011KT 30/15 A2992 RMK A01 T03030154  RH  040%=      5-min Rain = 0
KAM3 201456Z 20009KT 30/15 A2992 RMK A01 T03040152  RH  040%=      5-min Rain = 0
KAM3 201457Z 21008KT 30/15 A2993 RMK A01 T03040152  RH  040%=      5-min Rain = 0
KAM3 201458Z 20009KT 31/15 A2993 RMK A01 T03050153  RH  040%=      5-min Rain = 0
KAM3 201459Z 19011KT 31/15 A2993 RMK A01 T03060152  RH  039%=      5-min Rain = 0
KAM3 201500Z 19013KT 31/15 A2992 RMK A01 T03050151  RH  039%=      5-min Rain = 0
KAM3 201501Z 21012KT 30/15 A2992 RMK A01 T03040150  RH  039%=      5-min Rain = 0
KAM3 201502Z 21011KT 30/15 A2993 RMK A01 T03030150  RH  040%=      5-min Rain = 0
KAM3 201503Z 21010KT 30/15 A2992 RMK A01 T03030150  RH  040%=      5-min Rain = 0
KAM3 201504Z 21008KT 30/15 A2992 RMK A01 T03040152  RH  040%=      5-min Rain = 0
KAM3 201505Z 20008KT 31/16 A2993 RMK A01 T03060155  RH  040%=      5-min Rain = 0
KAM3 201506Z 20008KT 31/15 A2993 RMK A01 T03080153  RH  039%=      5-min Rain = 0
KAM3 201507Z 20010KT 31/15 A2992 RMK A01 T03080153  RH  039%=      5-min Rain = 0
KAM3 201508Z 22010KT 31/15 A2992 RMK A01 T03080152  RH  039%=      5-min Rain = 0
KAM3 201509Z 22012KT 31/15 A2992 RMK A01 T03080152  RH  039%=      5-min Rain = 0
KAM3 201510Z 22008KT 31/15 A2992 RMK A01 T03090153  RH  039%=      5-min Rain = 0
KAM3 201511Z 21011KT 31/15 A2992 RMK A01 T03090152  RH  039%=      5-min Rain = 0
KAM3 201512Z 20012KT 31/15 A2992 RMK A01 T03090151  RH  038%=      5-min Rain = 0
KAM3 201513Z 20010KT 31/15 A2992 RMK A01 T03090152  RH  039%=      5-min Rain = 0
KAM3 201514Z 20012KT 31/15 A2992 RMK A01 T03080153  RH  039%=      5-min Rain = 0
KAM3 201515Z 20011KT 31/15 A2992 RMK A01 T03080152  RH  039%=      5-min Rain = 0
KAM3 201516Z 20011KT 31/15 A2992 RMK A01 T03080152  RH  039%=      5-min Rain = 0
KAM3 201517Z 20009KT 31/15 A2992 RMK A01 T03090153  RH  039%=      5-min Rain = 0
KAM3 201518Z 20011KT 31/15 A2992 RMK A01 T03090154  RH  039%=      5-min Rain = 0
KAM3 201519Z 20011KT 31/15 A2992 RMK A01 T03100153  RH  039%=      5-min Rain = 0
KAM3 201520Z 23012KT 31/15 A2992 RMK A01 T03110151  RH  038%=      5-min Rain = 0
KAM3 201521Z 22014KT 31/15 A2992 RMK A01 T03110151  RH  038%=      5-min Rain = 0
KAM3 201522Z 21015KT 31/15 A2992 RMK A01 T03100150  RH  038%=      5-min Rain = 0
KAM3 201523Z 21013KT 31/15 A2992 RMK A01 T03100150  RH  038%=      5-min Rain = 0
KAM3 201524Z 21015KT 31/15 A2992 RMK A01 T03100151  RH  038%=      5-min Rain = 0
KAM3 201525Z 20015KT 31/15 A2992 RMK A01 T03100150  RH  038%=      5-min Rain = 0
KAM3 201526Z 20013KT 31/15 A2992 RMK A01 T03110150  RH  038%=      5-min Rain = 0
KAM3 201527Z 21014KT 31/15 A2992 RMK A01 T03100151  RH  038%=      5-min Rain = 0
KAM3 201528Z 20013KT 31/15 A2992 RMK A01 T03100151  RH  038%=      5-min Rain = 0
KAM3 201529Z 21011KT 31/15 A2992 RMK A01 T03100151  RH  038%=      5-min Rain = 0
KAM3 201530Z 22011KT 31/15 A2992 RMK A01 T03100150  RH  038%=      5-min Rain = 0
KAM3 201531Z 21011KT 31/15 A2992 RMK A01 T03110152  RH  038%=      5-min Rain = 0
KAM3 201532Z 23009KT 31/15 A2992 RMK A01 T03130152  RH  038%=      5-min Rain = 0
KAM3 201533Z 20010KT 31/16 A2992 RMK A01 T03140155  RH  038%=      5-min Rain = 0
KAM3 201534Z 19009KT 32/16 A2992 RMK A01 T03160155  RH  038%=      5-min Rain = 0
KAM3 201535Z 19011KT 32/16 A2992 RMK A01 T03180155  RH  037%=      5-min Rain = 0
KAM3 201536Z 19010KT 32/15 A2992 RMK A01 T03190153  RH  037%=      5-min Rain = 0
KAM3 201537Z 21012KT 32/16 A2992 RMK A01 T03190155  RH  037%=      5-min Rain = 0
KAM3 201538Z 21012KT 32/15 A2992 RMK A01 T03200152  RH  036%=      5-min Rain = 0
KAM3 201539Z 21010KT 32/15 A2992 RMK A01 T03190154  RH  037%=      5-min Rain = 0
KAM3 201540Z 22012KT 32/15 A2992 RMK A01 T03200154  RH  037%=      5-min Rain = 0
KAM3 201541Z 23013KT 32/15 A2992 RMK A01 T03210153  RH  036%=      5-min Rain = 0
KAM3 201542Z 22009KT 32/15 A2992 RMK A01 T03200151  RH  036%=      5-min Rain = 0
KAM3 201543Z 22012KT 32/15 A2991 RMK A01 T03180154  RH  037%=      5-min Rain = 0
KAM3 201544Z 23013KT 32/15 A2991 RMK A01 T03200152  RH  036%=      5-min Rain = 0
KAM3 201545Z 23012KT 32/15 A2991 RMK A01 T03210153  RH  036%=      5-min Rain = 0
KAM3 201546Z 24011KT 32/16 A2991 RMK A01 T03220155  RH  037%=      5-min Rain = 0
KAM3 201547Z 22013KT 32/16 A2991 RMK A01 T03220155  RH  037%=      5-min Rain = 0
KAM3 201548Z 22010KT 32/15 A2991 RMK A01 T03230151  RH  035%=      5-min Rain = 0
KAM3 201549Z 22011KT 32/15 A2991 RMK A01 T03230154  RH  036%=      5-min Rain = 0
KAM3 201550Z 21011KT 32/16 A2991 RMK A01 T03240156  RH  036%=      5-min Rain = 0
KAM3 201551Z 21011KT 33/16 A2991 RMK A01 T03260155  RH  036%=      5-min Rain = 0
KAM3 201552Z 22011KT 33/15 A2991 RMK A01 T03270154  RH  036%=      5-min Rain = 0
KAM3 201553Z 21012KT 33/16 A2991 RMK A01 T03260155  RH  036%=      5-min Rain = 0
KAM3 201554Z 19012KT 33/16 A2991 RMK A01 T03260155  RH  036%=      5-min Rain = 0
KAM3 201555Z 18013KT 33/15 A2991 RMK A01 T03270154  RH  035%=      5-min Rain = 0
KAM3 201556Z 19013KT 33/15 A2991 RMK A01 T03270153  RH  035%=      5-min Rain = 0
KAM3 201557Z 21012KT 33/15 A2991 RMK A01 T03260153  RH  035%=      5-min Rain = 0
KAM3 201558Z 21009KT 33/15 A2991 RMK A01 T03250154  RH  036%=      5-min Rain = 0
KAM3 201559Z 20011KT 32/16 A2991 RMK A01 T03240155  RH  036%=      5-min Rain = 0
KAM3 201600Z 20011KT 33/15 A2991 RMK A01 T03260154  RH  036%=      5-min Rain = 0
KAM3 201601Z 20014KT 33/16 A2991 RMK A01 T03260157  RH  036%=      5-min Rain = 0
KAM3 201602Z 19010KT 33/15 A2991 RMK A01 T03280154  RH  035%=      5-min Rain = 0
KAM3 201603Z 19007KT 33/16 A2991 RMK A01 T03260155  RH  036%=      5-min Rain = 0
KAM3 201604Z 21013KT 33/16 A2991 RMK A01 T03260157  RH  036%=      5-min Rain = 0
KAM3 201605Z 20012KT 33/15 A2991 RMK A01 T03280154  RH  035%=      5-min Rain = 0
KAM3 201606Z 18012KT 33/16 A2991 RMK A01 T03280156  RH  036%=      5-min Rain = 0
KAM3 201607Z 18010KT 33/16 A2991 RMK A01 T03290155  RH  035%=      5-min Rain = 0
KAM3 201608Z 21012KT 33/16 A2991 RMK A01 T03290158  RH  036%=      5-min Rain = 0
KAM3 201609Z 21011KT 33/16 A2991 RMK A01 T03310157  RH  035%=      5-min Rain = 0
KAM3 201610Z 20008KT 33/16 A2991 RMK A01 T03330158  RH  035%=      5-min Rain = 0
KAM3 201611Z 20006KT 34/16 A2991 RMK A01 T03350162  RH  036%=      5-min Rain = 0
KAM3 201612Z 19007KT 34/16 A2991 RMK A01 T03370158  RH  034%=      5-min Rain = 0
KAM3 201613Z 20010KT 34/16 A2991 RMK A01 T03380156  RH  034%=      5-min Rain = 0
KAM3 201614Z 19015G20KT 34/16 A2991 RMK A01 T03360156  RH  034%=      5-min Rain = 0
KAM3 201615Z 19010KT 33/16 A2991 RMK A01 T03330157  RH  035%=      5-min Rain = 0
KAM3 201616Z 19008KT 33/16 A2991 RMK A01 T03330157  RH  035%=      5-min Rain = 0
KAM3 201617Z 19011KT 33/16 A2991 RMK A01 T03330157  RH  035%=      5-min Rain = 0
KAM3 201618Z 18011KT 33/16 A2991 RMK A01 T03340157  RH  035%=      5-min Rain = 0
KAM3 201619Z 18013KT 34/16 A2991 RMK A01 T03350156  RH  034%=      5-min Rain = 0
KAM3 201620Z 19010KT 34/16 A2991 RMK A01 T03350158  RH  035%=      5-min Rain = 0
KAM3 201621Z 19011KT 34/16 A2991 RMK A01 T03360158  RH  034%=      5-min Rain = 0
KAM3 201622Z 18012KT 34/16 A2991 RMK A01 T03380157  RH  034%=      5-min Rain = 0
KAM3 201623Z 18012KT 34/16 A2991 RMK A01 T03380158  RH  034%=      5-min Rain = 0
KAM3 201624Z 19012KT 34/16 A2991 RMK A01 T03370158  RH  034%=      5-min Rain = 0
KAM3 201625Z 20014KT 34/16 A2991 RMK A01 T03380157  RH  034%=      5-min Rain = 0
KAM3 201626Z 20011KT 34/16 A2991 RMK A01 T03380156  RH  034%=      5-min Rain = 0
KAM3 201627Z 21010KT 34/16 A2991 RMK A01 T03390156  RH  034%=      5-min Rain = 0
KAM3 201628Z 21012KT 34/16 A2991 RMK A01 T03410158  RH  033%=      5-min Rain = 0
KAM3 201629Z 21010KT 34/16 A2991 RMK A01 T03420155  RH  033%=      5-min Rain = 0
KAM3 201630Z 21013KT 34/16 A2991 RMK A01 T03410155  RH  033%=      5-min Rain = 0
KAM3 201631Z 20013KT 34/16 A2991 RMK A01 T03400155  RH  033%=      5-min Rain = 0
KAM3 201632Z 21012KT 34/16 A2991 RMK A01 T03420158  RH  033%=      5-min Rain = 0
KAM3 201633Z 22010KT 34/16 A2991 RMK A01 T03420159  RH  033%=      5-min Rain = 0
KAM3 201634Z 19013KT 34/16 A2991 RMK A01 T03440158  RH  033%=      5-min Rain = 0
KAM3 201635Z 20013KT 34/16 A2991 RMK A01 T03430158  RH  033%=      5-min Rain = 0
KAM3 201636Z 20012KT 34/16 A2991 RMK A01 T03410156  RH  033%=      5-min Rain = 0
KAM3 201637Z 20012KT 34/16 A2991 RMK A01 T03400156  RH  033%=      5-min Rain = 0
KAM3 201638Z 21013KT 34/16 A2991 RMK A01 T03400156  RH  033%=      5-min Rain = 0
KAM3 201639Z 21012KT 34/16 A2991 RMK A01 T03400155  RH  033%=      5-min Rain = 0
KAM3 201640Z 20010KT 34/16 A2991 RMK A01 T03400157  RH  034%=      5-min Rain = 0
KAM3 201641Z 18010KT 34/16 A2991 RMK A01 T03410161  RH  034%=      5-min Rain = 0
KAM3 201642Z 18009G14KT 35/16 A2991 RMK A01 T03450160  RH  033%=      5-min Rain = 0
KAM3 201643Z 19010KT 35/16 A2991 RMK A01 T03460161  RH  033%=      5-min Rain = 0
KAM3 201644Z 19012KT 35/16 A2991 RMK A01 T03470158  RH  033%=      5-min Rain = 0
KAM3 201645Z 18011KT 35/16 A299 RMK A01 T03450159  RH  033%=      5-min Rain = 0
KAM3 201646Z 18009G14KT 34/16 A299 RMK A01 T03440159  RH  033%=      5-min Rain = 0
KAM3 201647Z 18013KT 35/16 A299 RMK A01 T03460160  RH  033%=      5-min Rain = 0
KAM3 201648Z 19012KT 35/16 A299 RMK A01 T03480157  RH  032%=      5-min Rain = 0
KAM3 201649Z 19009KT 35/16 A299 RMK A01 T03470159  RH  033%=      5-min Rain = 0
KAM3 201650Z 21013KT 35/16 A299 RMK A01 T03470158  RH  033%=      5-min Rain = 0
KAM3 201651Z 21013KT 35/16 A299 RMK A01 T03470158  RH  032%=      5-min Rain = 0
KAM3 201652Z 19013KT 35/16 A299 RMK A01 T03470158  RH  032%=      5-min Rain = 0
KAM3 201653Z 18015KT 35/16 A299 RMK A01 T03470156  RH  032%=      5-min Rain = 0
KAM3 201654Z 19013KT 35/16 A299 RMK A01 T03470156  RH  032%=      5-min Rain = 0
KAM3 201655Z 18015KT 35/16 A299 RMK A01 T03470156  RH  032%=      5-min Rain = 0
KAM3 201656Z 18015KT 35/16 A299 RMK A01 T03450156  RH  032%=      5-min Rain = 0
KAM3 201657Z 18011KT 34/16 A299 RMK A01 T03440156  RH  032%=      5-min Rain = 0
KAM3 201658Z 18012KT 34/16 A299 RMK A01 T03440156  RH  032%=      5-min Rain = 0
KAM3 201659Z 19011KT 35/16 A299 RMK A01 T03460155  RH  032%=      5-min Rain = 0
KAM3 201700Z 19015KT 35/16 A299 RMK A01 T03480155  RH  032%=      5-min Rain = 0
KAM3 201701Z 19015KT 35/16 A299 RMK A01 T03490155  RH  031%=      5-min Rain = 0
KAM3 201702Z 19014KT 35/15 A299 RMK A01 T03490154  RH  031%=      5-min Rain = 0
KAM3 201703Z 18012KT 35/15 A299 RMK A01 T03490154  RH  031%=      5-min Rain = 0
KAM3 201704Z 19012KT 35/16 A299 RMK A01 T03490157  RH  032%=      5-min Rain = 0
KAM3 201705Z 19013KT 35/16 A299 RMK A01 T03530157  RH  031%=      5-min Rain = 0
KAM3 201706Z 20012KT 35/16 A299 RMK A01 T03520157  RH  031%=      5-min Rain = 0
KAM3 201707Z 20013KT 35/16 A299 RMK A01 T03520158  RH  031%=      5-min Rain = 0
KAM3 201708Z 20011KT 35/16 A299 RMK A01 T03520158  RH  031%=      5-min Rain = 0
KAM3 201709Z 21010KT 35/16 A299 RMK A01 T03530157  RH  031%=      5-min Rain = 0
KAM3 201710Z 20013KT 35/16 A299 RMK A01 T03530158  RH  031%=      5-min Rain = 0
KAM3 201711Z 19011KT 35/16 A299 RMK A01 T03530160  RH  032%=      5-min Rain = 0
KAM3 201712Z 18012G17KT 35/16 A299 RMK A01 T03530161  RH  032%=      5-min Rain = 0
KAM3 201713Z 19012KT 36/16 A299 RMK A01 T03560160  RH  031%=      5-min Rain = 0
KAM3 201714Z 19012KT 36/16 A299 RMK A01 T03580156  RH  030%=      5-min Rain = 0
KAM3 201715Z 20011KT 36/16 A299 RMK A01 T03580159  RH  031%=      5-min Rain = 0
KAM3 201716Z 20012KT 36/16 A299 RMK A01 T03600162  RH  031%=      5-min Rain = 0
KAM3 201717Z 20012KT 36/16 A299 RMK A01 T03620160  RH  030%=      5-min Rain = 0
KAM3 201718Z 19013G18KT 36/16 A299 RMK A01 T03610160  RH  030%=      5-min Rain = 0
KAM3 201719Z 19016KT 36/16 A299 RMK A01 T03600158  RH  030%=      5-min Rain = 0
KAM3 201720Z 20012KT 36/16 A299 RMK A01 T03570157  RH  031%=      5-min Rain = 0
KAM3 201721Z 18012KT 36/16 A299 RMK A01 T03550159  RH  031%=      5-min Rain = 0
KAM3 201722Z 19012KT 36/16 A299 RMK A01 T03570160  RH  031%=      5-min Rain = 0
KAM3 201723Z 21015KT 36/16 A299 RMK A01 T03600159  RH  030%=      5-min Rain = 0
KAM3 201724Z 20015G20KT 36/16 A299 RMK A01 T03620159  RH  030%=      5-min Rain = 0
KAM3 201725Z 19016KT 36/16 A299 RMK A01 T03630155  RH  029%=      5-min Rain = 0
KAM3 201726Z 18017KT 36/15 A299 RMK A01 T03610153  RH  029%=      5-min Rain = 0
KAM3 201727Z 18016KT 36/15 A299 RMK A01 T03590153  RH  029%=      5-min Rain = 0
KAM3 201728Z 19013KT 36/16 A299 RMK A01 T03580155  RH  030%=      5-min Rain = 0
KAM3 201729Z 20014KT 36/16 A299 RMK A01 T03610156  RH  030%=      5-min Rain = 0
KAM3 201730Z 19012KT 36/16 A299 RMK A01 T03610155  RH  029%=      5-min Rain = 0
KAM3 201731Z 21014KT 36/16 A299 RMK A01 T03590159  RH  030%=      5-min Rain = 0
KAM3 201732Z 20014KT 36/16 A299 RMK A01 T03630158  RH  030%=      5-min Rain = 0
KAM3 201733Z 19014KT 36/16 A299 RMK A01 T03640159  RH  030%=      5-min Rain = 0
KAM3 201734Z 19011KT 37/16 A299 RMK A01 T03650157  RH  029%=      5-min Rain = 0
KAM3 201735Z 19012KT 37/16 A299 RMK A01 T03660158  RH  029%=      5-min Rain = 0
KAM3 201736Z 20013KT 37/16 A2989 RMK A01 T03670158  RH  029%=      5-min Rain = 0
KAM3 201737Z 20019KT 37/16 A2989 RMK A01 T03680158  RH  029%=      5-min Rain = 0
KAM3 201738Z 19016G21KT 37/16 A2989 RMK A01 T03660155  RH  029%=      5-min Rain = 0
KAM3 201739Z 20016KT 36/16 A299 RMK A01 T03630156  RH  029%=      5-min Rain = 0
KAM3 201740Z 19010G16KT 36/16 A2989 RMK A01 T03630155  RH  029%=      5-min Rain = 0
KAM3 201741Z 18015G20KT 36/16 A2989 RMK A01 T03630157  RH  029%=      5-min Rain = 0
KAM3 201742Z 19015KT 37/15 A2989 RMK A01 T03650154  RH  029%=      5-min Rain = 0
KAM3 201743Z 21017KT 37/16 A2989 RMK A01 T03650155  RH  029%=      5-min Rain = 0
KAM3 201744Z 20016KT 37/15 A2989 RMK A01 T03660154  RH  028%=      5-min Rain = 0
KAM3 201745Z 19013KT 37/16 A2989 RMK A01 T03650155  RH  029%=      5-min Rain = 0
KAM3 201746Z 20012G17KT 37/16 A2989 RMK A01 T03660161  RH  030%=      5-min Rain = 0
KAM3 201747Z 19013KT 37/16 A2989 RMK A01 T03680159  RH  029%=      5-min Rain = 0
KAM3 201748Z 19016KT 37/16 A2989 RMK A01 T03700160  RH  029%=      5-min Rain = 0
KAM3 201749Z 20013KT 37/16 A2989 RMK A01 T03710156  RH  028%=      5-min Rain = 0
KAM3 201750Z 20014G20KT 37/16 A2989 RMK A01 T03700155  RH  028%=      5-min Rain = 0
KAM3 201751Z 20014G19KT 37/15 A2989 RMK A01 T03710151  RH  027%=      5-min Rain = 0
KAM3 201752Z 20011KT 37/15 A2989 RMK A01 T03700154  RH  028%=      5-min Rain = 0
KAM3 201753Z 18012KT 37/16 A2989 RMK A01 T03710158  RH  028%=      5-min Rain = 0
KAM3 201754Z 17011KT 37/16 A2989 RMK A01 T03720158  RH  028%=      5-min Rain = 0
KAM3 201755Z 18016G23KT 37/16 A2989 RMK A01 T03740160  RH  028%=      5-min Rain = 0
KAM3 201756Z 18017G22KT 37/16 A2989 RMK A01 T03740158  RH  028%=      5-min Rain = 0
KAM3 201757Z 19013KT 37/16 A2989 RMK A01 T03720160  RH  029%=      5-min Rain = 0
KAM3 201758Z 18010KT 37/16 A2989 RMK A01 T03720161  RH  029%=      5-min Rain = 0
KAM3 201759Z 18010KT 37/16 A2989 RMK A01 T03710161  RH  029%=      5-min Rain = 0
KAM3 201800Z 17015G22KT 37/16 A2989 RMK A01 T03710164  RH  029%=      5-min Rain = 0
KAM3 201801Z 18016G21KT 37/16 A2989 RMK A01 T03740157  RH  028%=      5-min Rain = 0
KAM3 201802Z 17016KT 37/16 A2989 RMK A01 T03730159  RH  028%=      5-min Rain = 0
KAM3 201803Z 18015KT 37/16 A2989 RMK A01 T03720158  RH  028%=      5-min Rain = 0
KAM3 201804Z 17015KT 37/16 A2989 RMK A01 T03720159  RH  029%=      5-min Rain = 0
KAM3 201805Z 19013KT 37/16 A2989 RMK A01 T03720158  RH  028%=      5-min Rain = 0
KAM3 201806Z 20014KT 37/16 A2988 RMK A01 T03740158  RH  028%=      5-min Rain = 0
KAM3 201807Z 18017KT 38/16 A2988 RMK A01 T03760158  RH  028%=      5-min Rain = 0
KAM3 201808Z 19014G19KT 38/16 A2989 RMK A01 T03760155  RH  027%=      5-min Rain = 0
KAM3 201809Z 19012KT 37/16 A2988 RMK A01 T03740158  RH  028%=      5-min Rain = 0
KAM3 201810Z 19011KT 37/16 A2988 RMK A01 T03740158  RH  028%=      5-min Rain = 0
KAM3 201811Z 17013KT 38/16 A2988 RMK A01 T03760156  RH  027%=      5-min Rain = 0
KAM3 201812Z 17017G24KT 38/16 A2988 RMK A01 T03770157  RH  027%=      5-min Rain = 0
KAM3 201813Z 19017KT 38/15 A2988 RMK A01 T03780154  RH  027%=      5-min Rain = 0
KAM3 201814Z 18012KT 38/15 A2988 RMK A01 T03760154  RH  027%=      5-min Rain = 0
KAM3 201815Z 19013KT 38/16 A2988 RMK A01 T03770156  RH  027%=      5-min Rain = 0
KAM3 201816Z 18015KT 38/16 A2988 RMK A01 T03780155  RH  027%=      5-min Rain = 0
KAM3 201817Z 19016KT 38/15 A2988 RMK A01 T03790151  RH  026%=      5-min Rain = 0
KAM3 201818Z 17014KT 38/15 A2988 RMK A01 T03780152  RH  026%=      5-min Rain = 0
KAM3 201819Z 17013KT 38/15 A2988 RMK A01 T03790151  RH  026%=      5-min Rain = 0
KAM3 201820Z 17014KT 38/15 A2988 RMK A01 T03790153  RH  026%=      5-min Rain = 0
KAM3 201821Z 17015KT 38/15 A2988 RMK A01 T03800154  RH  026%=      5-min Rain = 0
KAM3 201822Z 17013KT 38/16 A2988 RMK A01 T03790155  RH  027%=      5-min Rain = 0
KAM3 201823Z 17013KT 38/16 A2988 RMK A01 T03780155  RH  027%=      5-min Rain = 0
KAM3 201824Z 17016KT 38/16 A2988 RMK A01 T03790155  RH  027%=      5-min Rain = 0
KAM3 201825Z 18019G24KT 38/15 A2988 RMK A01 T03810151  RH  026%=      5-min Rain = 0
KAM3 201826Z 18017KT 38/15 A2988 RMK A01 T03800147  RH  025%=      5-min Rain = 0
KAM3 201827Z 18016KT 38/15 A2988 RMK A01 T03790148  RH  026%=      5-min Rain = 0
KAM3 201828Z 17015KT 38/15 A2988 RMK A01 T03780152  RH  026%=      5-min Rain = 0
KAM3 201829Z 18017KT 38/15 A2988 RMK A01 T03780152  RH  026%=      5-min Rain = 0
KAM3 201830Z 18016KT 38/15 A2988 RMK A01 T03780153  RH  027%=      5-min Rain = 0
KAM3 201831Z 19015KT 38/15 A2988 RMK A01 T03810152  RH  026%=      5-min Rain = 0
KAM3 201832Z 19012G18KT 38/15 A2988 RMK A01 T03790154  RH  027%=      5-min Rain = 0
KAM3 201833Z 17014G19KT 38/16 A2988 RMK A01 T03780155  RH  027%=      5-min Rain = 0
KAM3 201834Z 18015G21KT 38/16 A2988 RMK A01 T03790157  RH  027%=      5-min Rain = 0
KAM3 201835Z 19016KT 38/15 A2988 RMK A01 T03810150  RH  026%=      5-min Rain = 0
KAM3 201836Z 18015KT 38/15 A2988 RMK A01 T03800152  RH  026%=      5-min Rain = 0
KAM3 201837Z 20016KT 38/15 A2988 RMK A01 T03810153  RH  026%=      5-min Rain = 0
KAM3 201838Z 19016KT 38/15 A2988 RMK A01 T03820149  RH  025%=      5-min Rain = 0
KAM3 201839Z 20014G21KT 38/15 A2988 RMK A01 T03800151  RH  026%=      5-min Rain = 0
KAM3 201840Z 19014G19KT 38/15 A2988 RMK A01 T03810152  RH  026%=      5-min Rain = 0
KAM3 201841Z 19014KT 38/15 A2988 RMK A01 T03820153  RH  026%=      5-min Rain = 0
KAM3 201842Z 19012KT 38/15 A2988 RMK A01 T03830154  RH  026%=      5-min Rain = 0
KAM3 201843Z 20013G19KT 38/16 A2988 RMK A01 T03830157  RH  026%=      5-min Rain = 0
KAM3 201844Z 19015KT 38/16 A2988 RMK A01 T03830158  RH  027%=      5-min Rain = 0
KAM3 201845Z 18014KT 38/16 A2988 RMK A01 T03830157  RH  026%=      5-min Rain = 0
KAM3 201846Z 20013KT 38/16 A2988 RMK A01 T03810155  RH  026%=      5-min Rain = 0
KAM3 201847Z 21013KT 38/15 A2988 RMK A01 T03810154  RH  026%=      5-min Rain = 0
KAM3 201848Z 19013KT 38/16 A2988 RMK A01 T03810155  RH  026%=      5-min Rain = 0
KAM3 201849Z 19013KT 38/15 A2988 RMK A01 T03840154  RH  026%=      5-min Rain = 0
KAM3 201850Z 21015KT 39/15 A2987 RMK A01 T03860153  RH  025%=      5-min Rain = 0
KAM3 201851Z 21012KT 39/16 A2988 RMK A01 T03870155  RH  026%=      5-min Rain = 0
KAM3 201852Z 21011KT 39/16 A2988 RMK A01 T03910156  RH  025%=      5-min Rain = 0
KAM3 201853Z 21009KT 39/16 A2988 RMK A01 T03930155  RH  025%=      5-min Rain = 0
KAM3 201854Z 17013KT 39/16 A2987 RMK A01 T03920158  RH  025%=      5-min Rain = 0
KAM3 201855Z 17010KT 39/16 A2987 RMK A01 T03900157  RH  026%=      5-min Rain = 0
KAM3 201856Z 17011KT 39/16 A2987 RMK A01 T03890158  RH  026%=      5-min Rain = 0
KAM3 201857Z 17010G15KT 39/16 A2987 RMK A01 T03910162  RH  026%=      5-min Rain = 0
KAM3 201858Z 18014KT 39/16 A2987 RMK A01 T03940157  RH  025%=      5-min Rain = 0
KAM3 201859Z 18017G27KT 39/16 A2987 RMK A01 T03930155  RH  025%=      5-min Rain = 0
KAM3 201900Z 19016G21KT 39/15 A2987 RMK A01 T03940153  RH  024%=      5-min Rain = 0
KAM3 201901Z 18015KT 39/15 A2987 RMK A01 T03940146  RH  023%=      5-min Rain = 0
KAM3 201902Z 19012KT 39/15 A2987 RMK A01 T03920148  RH  024%=      5-min Rain = 0
KAM3 201903Z 19017KT 39/14 A2987 RMK A01 T03930144  RH  023%=      5-min Rain = 0
KAM3 201904Z 19018KT 39/14 A2987 RMK A01 T03920141  RH  023%=      5-min Rain = 0
KAM3 201905Z 19015KT 39/14 A2987 RMK A01 T03880143  RH  024%=      5-min Rain = 0
KAM3 201906Z 19014KT 39/14 A2987 RMK A01 T03860144  RH  024%=      5-min Rain = 0
KAM3 201907Z 18012KT 39/14 A2987 RMK A01 T03860143  RH  024%=      5-min Rain = 0
KAM3 201908Z 19009KT 39/15 A2987 RMK A01 T03860147  RH  024%=      5-min Rain = 0
KAM3 201909Z 16010KT 39/15 A2987 RMK A01 T03900153  RH  025%=      5-min Rain = 0
KAM3 201910Z 17012KT 39/16 A2987 RMK A01 T03930155  RH  025%=      5-min Rain = 0
KAM3 201911Z 18015KT 39/15 A2987 RMK A01 T03940152  RH  024%=      5-min Rain = 0
KAM3 201912Z 19015KT 40/14 A2987 RMK A01 T03950142  RH  022%=      5-min Rain = 0
KAM3 201913Z 19013G18KT 39/14 A2987 RMK A01 T03930143  RH  023%=      5-min Rain = 0
KAM3 201914Z 18014KT 39/14 A2987 RMK A01 T03920143  RH  023%=      5-min Rain = 0
KAM3 201915Z 19016KT 39/14 A2987 RMK A01 T03940143  RH  023%=      5-min Rain = 0
KAM3 201916Z 19016KT 40/14 A2987 RMK A01 T03950140  RH  022%=      5-min Rain = 0
KAM3 201917Z 19012G20KT 40/14 A2987 RMK A01 T03950142  RH  023%=      5-min Rain = 0
KAM3 201918Z 18018KT 40/13 A2987 RMK A01 T03960132  RH  021%=      5-min Rain = 0
KAM3 201919Z 17016KT 39/13 A2987 RMK A01 T03940134  RH  022%=      5-min Rain = 0
KAM3 201920Z 18014KT 39/14 A2987 RMK A01 T03920142  RH  023%=      5-min Rain = 0
KAM3 201921Z 17013G18KT 39/15 A2987 RMK A01 T03910147  RH  024%=      5-min Rain = 0
KAM3 201922Z 19017KT 39/14 A2986 RMK A01 T03920143  RH  023%=      5-min Rain = 0
KAM3 201923Z 21015KT 39/14 A2986 RMK A01 T03930139  RH  022%=      5-min Rain = 0
KAM3 201924Z 20011KT 39/14 A2986 RMK A01 T03940141  RH  023%=      5-min Rain = 0
KAM3 201925Z 20014KT 40/14 A2986 RMK A01 T03980144  RH  022%=      5-min Rain = 0
KAM3 201926Z 19014G19KT 40/15 A2986 RMK A01 T03990145  RH  022%=      5-min Rain = 0
KAM3 201927Z 18015KT 40/15 A2986 RMK A01 T03990147  RH  023%=      5-min Rain = 0
KAM3 201928Z 18017KT 40/15 A2986 RMK A01 T03980150  RH  023%=      5-min Rain = 0
KAM3 201929Z 19016KT 40/15 A2986 RMK A01 T03990147  RH  023%=      5-min Rain = 0
KAM3 201930Z 19013KT 40/15 A2986 RMK A01 T03980146  RH  023%=      5-min Rain = 0
KAM3 201931Z 19009KT 40/14 A2986 RMK A01 T03990142  RH  022%=      5-min Rain = 0
KAM3 201932Z 20016KT 40/13 A2986 RMK A01 T04000134  RH  021%=      5-min Rain = 0
KAM3 201933Z 19019KT 40/14 A2986 RMK A01 T03990135  RH  021%=      5-min Rain = 0
KAM3 201934Z 19016KT 40/13 A2986 RMK A01 T03960131  RH  021%=      5-min Rain = 0
KAM3 201935Z 19017KT 39/12 A2986 RMK A01 T03940122  RH  020%=      5-min Rain = 0
KAM3 201936Z 18014KT 39/13 A2986 RMK A01 T03920127  RH  021%=      5-min Rain = 0
KAM3 201937Z 17012KT 39/13 A2986 RMK A01 T03910133  RH  022%=      5-min Rain = 0
KAM3 201938Z 18011KT 39/14 A2986 RMK A01 T03910136  RH  022%=      5-min Rain = 0
KAM3 201939Z 20016KT 39/14 A2986 RMK A01 T03930136  RH  022%=      5-min Rain = 0
KAM3 201940Z 20016KT 40/13 A2986 RMK A01 T03950132  RH  021%=      5-min Rain = 0
KAM3 201941Z 20013KT 39/14 A2986 RMK A01 T03930136  RH  022%=      5-min Rain = 0
KAM3 201942Z 19018KT 40/14 A2986 RMK A01 T03950137  RH  022%=      5-min Rain = 0
KAM3 201943Z 19018KT 40/14 A2986 RMK A01 T03950136  RH  022%=      5-min Rain = 0
KAM3 201944Z 18015G21KT 39/14 A2986 RMK A01 T03940137  RH  022%=      5-min Rain = 0
KAM3 201945Z 20011KT 40/14 A2986 RMK A01 T03970141  RH  022%=      5-min Rain = 0
KAM3 201946Z 18017KT 40/14 A2986 RMK A01 T03990140  RH  022%=      5-min Rain = 0
KAM3 201947Z 20015KT 40/14 A2986 RMK A01 T03990142  RH  022%=      5-min Rain = 0
KAM3 201948Z 19010KT 40/14 A2986 RMK A01 T04000143  RH  022%=      5-min Rain = 0
KAM3 201949Z 19015KT 40/14 A2986 RMK A01 T03990137  RH  021%=      5-min Rain = 0
KAM3 201950Z 19015G20KT 40/14 A2986 RMK A01 T03970139  RH  022%=      5-min Rain = 0
KAM3 201951Z 17014KT 40/14 A2986 RMK A01 T03960139  RH  022%=      5-min Rain = 0
KAM3 201952Z 18016G21KT 40/13 A2986 RMK A01 T03960134  RH  021%=      5-min Rain = 0
KAM3 201953Z 17015G21KT 40/14 A2986 RMK A01 T03950137  RH  022%=      5-min Rain = 0
KAM3 201954Z 17015KT 40/14 A2986 RMK A01 T03960137  RH  022%=      5-min Rain = 0
KAM3 201955Z 16016KT 40/14 A2986 RMK A01 T03970137  RH  022%=      5-min Rain = 0
KAM3 201956Z 16015KT 40/14 A2985 RMK A01 T03970138  RH  022%=      5-min Rain = 0
KAM3 201957Z 17014KT 40/14 A2985 RMK A01 T03960137  RH  022%=      5-min Rain = 0
KAM3 201958Z 19015KT 40/14 A2985 RMK A01 T03950137  RH  022%=      5-min Rain = 0
KAM3 201959Z 19017KT 40/13 A2985 RMK A01 T03980132  RH  021%=      5-min Rain = 0
KAM3 202000Z 19012KT 40/14 A2985 RMK A01 T03990139  RH  022%=      5-min Rain = 0
KAM3 202001Z 18015KT 40/14 A2985 RMK A01 T04020140  RH  021%=      5-min Rain = 0
KAM3 202002Z 18013KT 40/14 A2985 RMK A01 T04020136  RH  021%=      5-min Rain = 0
KAM3 202003Z 18010KT 40/14 A2985 RMK A01 T03990138  RH  021%=      5-min Rain = 0
KAM3 202004Z 18008KT 40/14 A2985 RMK A01 T03980143  RH  022%=      5-min Rain = 0
KAM3 202005Z 17011G16KT 40/14 A2985 RMK A01 T04020143  RH  022%=      5-min Rain = 0
KAM3 202006Z 17011KT 40/14 A2985 RMK A01 T04040141  RH  021%=      5-min Rain = 0
KAM3 202007Z 17016KT 40/14 A2985 RMK A01 T04030139  RH  021%=      5-min Rain = 0
KAM3 202008Z 17017KT 40/13 A2985 RMK A01 T04000134  RH  021%=      5-min Rain = 0
KAM3 202009Z 17013G18KT 40/14 A2985 RMK A01 T03970135  RH  021%=      5-min Rain = 0
KAM3 202010Z 19017KT 40/14 A2985 RMK A01 T03990139  RH  022%=      5-min Rain = 0
KAM3 202011Z 18015KT 40/14 A2985 RMK A01 T04020135  RH  021%=      5-min Rain = 0
KAM3 202012Z 18014G19KT 40/13 A2985 RMK A01 T04000133  RH  021%=      5-min Rain = 0
KAM3 202013Z 19018KT 40/13 A2985 RMK A01 T03980133  RH  021%=      5-min Rain = 0
KAM3 202014Z 20016G21KT 40/14 A2985 RMK A01 T03980137  RH  021%=      5-min Rain = 0
KAM3 202015Z 20015G20KT 40/14 A2985 RMK A01 T04000136  RH  021%=      5-min Rain = 0
KAM3 202016Z 19014KT 40/13 A2985 RMK A01 T03980132  RH  021%=      5-min Rain = 0
KAM3 202017Z 19016KT 40/13 A2985 RMK A01 T03960134  RH  021%=      5-min Rain = 0
KAM3 202018Z 19014KT 40/13 A2985 RMK A01 T03960134  RH  021%=      5-min Rain = 0
KAM3 202019Z 18015KT 40/13 A2985 RMK A01 T03960133  RH  021%=      5-min Rain = 0
KAM3 202020Z 19013KT 40/13 A2985 RMK A01 T03950133  RH  021%=      5-min Rain = 0
KAM3 202021Z 18010KT 40/14 A2985 RMK A01 T03950138  RH  022%=      5-min Rain = 0
KAM3 202022Z 18011KT 40/14 A2985 RMK A01 T03970139  RH  022%=      5-min Rain = 0
KAM3 202023Z 18014G22KT 40/14 A2985 RMK A01 T03990140  RH  022%=      5-min Rain = 0
KAM3 202024Z 17020KT 40/14 A2985 RMK A01 T04000142  RH  022%=      5-min Rain = 0
KAM3 202025Z 17014KT 40/14 A2985 RMK A01 T03970141  RH  022%=      5-min Rain = 0
KAM3 202026Z 17012KT 40/14 A2985 RMK A01 T03950144  RH  023%=      5-min Rain = 0
KAM3 202027Z 19016KT 40/15 A2985 RMK A01 T03980145  RH  023%=      5-min Rain = 0
KAM3 202028Z 19020KT 40/14 A2985 RMK A01 T04020143  RH  022%=      5-min Rain = 0
KAM3 202029Z 19015KT 40/14 A2985 RMK A01 T04030143  RH  022%=      5-min Rain = 0
KAM3 202030Z 19010KT 40/14 A2984 RMK A01 T04010138  RH  021%=      5-min Rain = 0
KAM3 202031Z 17010G15KT 40/14 A2984 RMK A01 T03970140  RH  022%=      5-min Rain = 0
KAM3 202032Z 18018KT 40/14 A2984 RMK A01 T03980140  RH  022%=      5-min Rain = 0
KAM3 202033Z 18018KT 40/14 A2984 RMK A01 T03980138  RH  022%=      5-min Rain = 0
KAM3 202034Z 18016KT 40/14 A2985 RMK A01 T03970138  RH  022%=      5-min Rain = 0
KAM3 202035Z 19014KT 40/14 A2985 RMK A01 T03990141  RH  022%=      5-min Rain = 0
KAM3 202036Z 19014KT 40/14 A2985 RMK A01 T04000139  RH  022%=      5-min Rain = 0
KAM3 202037Z 17013KT 40/14 A2985 RMK A01 T03990140  RH  022%=      5-min Rain = 0
KAM3 202038Z 17012KT 40/14 A2984 RMK A01 T03980136  RH  021%=      5-min Rain = 0
KAM3 202039Z 18018G23KT 40/14 A2984 RMK A01 T03980138  RH  022%=      5-min Rain = 0
KAM3 202040Z 17016KT 40/14 A2984 RMK A01 T03990138  RH  021%=      5-min Rain = 0
KAM3 202041Z 17015KT 40/14 A2984 RMK A01 T03980137  RH  021%=      5-min Rain = 0
KAM3 202042Z 18014KT 40/14 A2984 RMK A01 T03970137  RH  022%=      5-min Rain = 0
KAM3 202043Z 18015KT 40/14 A2984 RMK A01 T03970136  RH  021%=      5-min Rain = 0
KAM3 202044Z 18017KT 40/14 A2984 RMK A01 T03980135  RH  021%=      5-min Rain = 0
KAM3 202045Z 20017KT 40/14 A2984 RMK A01 T03980137  RH  021%=      5-min Rain = 0
KAM3 202046Z 20016KT 40/14 A2984 RMK A01 T03990137  RH  021%=      5-min Rain = 0
KAM3 202047Z 19015KT 40/14 A2984 RMK A01 T04000137  RH  021%=      5-min Rain = 0
KAM3 202048Z 20013KT 40/14 A2984 RMK A01 T03990140  RH  022%=      5-min Rain = 0
KAM3 202049Z 19012KT 40/14 A2984 RMK A01 T04000137  RH  021%=      5-min Rain = 0
KAM3 202050Z 17014KT 40/14 A2984 RMK A01 T04020138  RH  021%=      5-min Rain = 0
KAM3 202051Z 17012KT 40/13 A2984 RMK A01 T04020134  RH  021%=      5-min Rain = 0
KAM3 202052Z 17017KT 40/14 A2984 RMK A01 T04010137  RH  021%=      5-min Rain = 0
KAM3 202053Z 18016KT 40/14 A2984 RMK A01 T04010135  RH  021%=      5-min Rain = 0
KAM3 202054Z 19014KT 40/13 A2984 RMK A01 T03990134  RH  021%=      5-min Rain = 0
KAM3 202055Z 19012KT 40/14 A2984 RMK A01 T03970136  RH  021%=      5-min Rain = 0
KAM3 202056Z 18019G25KT 40/14 A2984 RMK A01 T04000136  RH  021%=      5-min Rain = 0
KAM3 202057Z 17017KT 40/13 A2984 RMK A01 T04010131  RH  020%=      5-min Rain = 0
KAM3 202058Z 17016KT 40/13 A2984 RMK A01 T04010131  RH  020%=      5-min Rain = 0
KAM3 202059Z 18015KT 40/13 A2984 RMK A01 T04010131  RH  020%=      5-min Rain = 0
KAM3 202100Z 18013KT 40/13 A2984 RMK A01 T04010131  RH  020%=      5-min Rain = 0
KAM3 202101Z 19012KT 40/13 A2984 RMK A01 T04020134  RH  021%=      5-min Rain = 0
KAM3 202102Z 19013KT 41/13 A2984 RMK A01 T04050133  RH  020%=      5-min Rain = 0
KAM3 202103Z 19010KT 41/13 A2984 RMK A01 T04060131  RH  020%=      5-min Rain = 0
KAM3 202104Z 20012G18KT 41/14 A2984 RMK A01 T04060136  RH  020%=      5-min Rain = 0
KAM3 202105Z 20014KT 41/13 A2984 RMK A01 T04070132  RH  020%=      5-min Rain = 0
KAM3 202106Z 20018G23KT 40/13 A2984 RMK A01 T04040133  RH  020%=      5-min Rain = 0
KAM3 202107Z 19017KT 40/13 A2984 RMK A01 T04020132  RH  020%=      5-min Rain = 0
KAM3 202108Z 18014KT 40/13 A2984 RMK A01 T04010133  RH  021%=      5-min Rain = 0
KAM3 202109Z 18014KT 40/14 A2984 RMK A01 T04010137  RH  021%=      5-min Rain = 0
KAM3 202110Z 19018KT 40/14 A2984 RMK A01 T04020139  RH  021%=      5-min Rain = 0
KAM3 202111Z 19015KT 40/14 A2984 RMK A01 T04010138  RH  021%=      5-min Rain = 0
KAM3 202112Z 17015KT 40/14 A2984 RMK A01 T04010141  RH  022%=      5-min Rain = 0
KAM3 202113Z 17016KT 40/14 A2984 RMK A01 T04030136  RH  021%=      5-min Rain = 0
KAM3 202114Z 18010KT 40/14 A2984 RMK A01 T04000136  RH  021%=      5-min Rain = 0
KAM3 202115Z 17008KT 40/14 A2984 RMK A01 T03980139  RH  022%=      5-min Rain = 0
KAM3 202116Z 16009G14KT 40/14 A2984 RMK A01 T04000141  RH  022%=      5-min Rain = 0
KAM3 202117Z 17013G25KT 40/14 A2983 RMK A01 T04040143  RH  022%=      5-min Rain = 0
KAM3 202118Z 18022KT 41/14 A2983 RMK A01 T04050139  RH  021%=      5-min Rain = 0
KAM3 202119Z 19019G24KT 40/14 A2983 RMK A01 T04040141  RH  021%=      5-min Rain = 0
KAM3 202120Z 19019KT 40/14 A2983 RMK A01 T04030140  RH  021%=      5-min Rain = 0
KAM3 202121Z 18015KT 40/14 A2983 RMK A01 T04010138  RH  021%=      5-min Rain = 0
KAM3 202122Z 19018G24KT 40/14 A2983 RMK A01 T04000140  RH  022%=      5-min Rain = 0
KAM3 202123Z 19013G18KT 40/14 A2983 RMK A01 T04000138  RH  021%=      5-min Rain = 0
KAM3 202124Z 17017G22KT 40/14 A2983 RMK A01 T04010141  RH  022%=      5-min Rain = 0
KAM3 202125Z 18016G21KT 40/14 A2983 RMK A01 T04020137  RH  021%=      5-min Rain = 0
KAM3 202126Z 18017KT 40/14 A2983 RMK A01 T04030138  RH  021%=      5-min Rain = 0
KAM3 202127Z 18012KT 40/14 A2983 RMK A01 T04020139  RH  021%=      5-min Rain = 0
KAM3 202128Z 18013KT 40/14 A2983 RMK A01 T04020139  RH  021%=      5-min Rain = 0
KAM3 202129Z 16013KT 40/14 A2983 RMK A01 T04030138  RH  021%=      5-min Rain = 0
KAM3 202130Z 16011KT 40/14 A2983 RMK A01 T04010137  RH  021%=      5-min Rain = 0
KAM3 202131Z 18012KT 40/14 A2983 RMK A01 T04010139  RH  021%=      5-min Rain = 0
KAM3 202132Z 18012KT 40/14 A2983 RMK A01 T04030137  RH  021%=      5-min Rain = 0
KAM3 202133Z 18010KT 40/14 A2983 RMK A01 T04030137  RH  021%=      5-min Rain = 0
KAM3 202134Z 20009KT 40/14 A2983 RMK A01 T04040142  RH  021%=      5-min Rain = 0
KAM3 202135Z 18015G23KT 41/14 A2983 RMK A01 T04070143  RH  021%=      5-min Rain = 0
KAM3 202136Z 18016G21KT 41/14 A2983 RMK A01 T04090140  RH  021%=      5-min Rain = 0
KAM3 202137Z 18017KT 41/14 A2983 RMK A01 T04090139  RH  020%=      5-min Rain = 0
KAM3 202138Z 18016G21KT 41/14 A2983 RMK A01 T04060137  RH  021%=      5-min Rain = 0
KAM3 202139Z 18017G23KT 40/14 A2983 RMK A01 T04040136  RH  021%=      5-min Rain = 0
KAM3 202140Z 18017KT 40/14 A2983 RMK A01 T04010135  RH  021%=      5-min Rain = 0
KAM3 202141Z 19013KT 40/14 A2983 RMK A01 T03990136  RH  021%=      5-min Rain = 0
KAM3 202142Z 18014KT 40/14 A2983 RMK A01 T03990136  RH  021%=      5-min Rain = 0
KAM3 202143Z 17014KT 40/14 A2983 RMK A01 T04000136  RH  021%=      5-min Rain = 0
KAM3 202144Z 17014KT 40/13 A2983 RMK A01 T04000134  RH  021%=      5-min Rain = 0
KAM3 202145Z 17013KT 40/14 A2983 RMK A01 T03990137  RH  021%=      5-min Rain = 0
KAM3 202146Z 18018G23KT 40/14 A2983 RMK A01 T04000136  RH  021%=      5-min Rain = 0
KAM3 202147Z 18018KT 40/13 A2983 RMK A01 T04010133  RH  021%=      5-min Rain = 0
KAM3 202148Z 18017KT 40/13 A2983 RMK A01 T04000133  RH  021%=      5-min Rain = 0
KAM3 202149Z 18015KT 40/13 A2983 RMK A01 T04010132  RH  020%=      5-min Rain = 0
KAM3 202150Z 18015KT 40/13 A2983 RMK A01 T04010133  RH  021%=      5-min Rain = 0
KAM3 202151Z 19014KT 40/13 A2983 RMK A01 T04020134  RH  021%=      5-min Rain = 0
KAM3 202152Z 17015KT 40/13 A2983 RMK A01 T04010133  RH  021%=      5-min Rain = 0
KAM3 202153Z 17013G18KT 40/13 A2983 RMK A01 T03990133  RH  021%=      5-min Rain = 0
KAM3 202154Z 17017KT 40/14 A2983 RMK A01 T03990136  RH  021%=      5-min Rain = 0
KAM3 202155Z 16016KT 40/13 A2983 RMK A01 T04000132  RH  021%=      5-min Rain = 0
KAM3 202156Z 17015KT 40/13 A2983 RMK A01 T04000134  RH  021%=      5-min Rain = 0
KAM3 202157Z 17015KT 40/14 A2983 RMK A01 T03990136  RH  021%=      5-min Rain = 0
KAM3 202158Z 17015KT 40/13 A2983 RMK A01 T04000134  RH  021%=      5-min Rain = 0
KAM3 202159Z 18013KT 40/13 A2983 RMK A01 T04000134  RH  021%=      5-min Rain = 0
KAM3 202200Z 19012G19KT 40/14 A2982 RMK A01 T04000139  RH  022%=      5-min Rain = 0
KAM3 202201Z 18015G20KT 40/14 A2982 RMK A01 T04030140  RH  021%=      5-min Rain = 0
KAM3 202202Z 19016KT 40/14 A2983 RMK A01 T04040137  RH  021%=      5-min Rain = 0
KAM3 202203Z 19014KT 40/14 A2983 RMK A01 T04030136  RH  021%=      5-min Rain = 0
KAM3 202204Z 18013KT 40/14 A2982 RMK A01 T04000135  RH  021%=      5-min Rain = 0
KAM3 202205Z 18013G19KT 40/14 A2982 RMK A01 T03990136  RH  021%=      5-min Rain = 0
KAM3 202206Z 18014G21KT 40/14 A2982 RMK A01 T04000139  RH  022%=      5-min Rain = 0
KAM3 202207Z 17015G21KT 40/14 A2982 RMK A01 T04010141  RH  022%=      5-min Rain = 0
KAM3 202208Z 18014G21KT 40/14 A2982 RMK A01 T04020142  RH  022%=      5-min Rain = 0
KAM3 202209Z 18013KT 40/14 A2982 RMK A01 T04030141  RH  021%=      5-min Rain = 0
KAM3 202210Z 17013G18KT 40/14 A2982 RMK A01 T04030142  RH  022%=      5-min Rain = 0
KAM3 202211Z 16014KT 40/14 A2982 RMK A01 T04030143  RH  022%=      5-min Rain = 0
KAM3 202212Z 17017KT 40/14 A2982 RMK A01 T04020139  RH  021%=      5-min Rain = 0
KAM3 202213Z 17017KT 40/14 A2982 RMK A01 T03990139  RH  022%=      5-min Rain = 0
KAM3 202214Z 17015KT 40/14 A2982 RMK A01 T03980139  RH  022%=      5-min Rain = 0
KAM3 202215Z 16012KT 40/14 A2982 RMK A01 T03970142  RH  022%=      5-min Rain = 0
KAM3 202216Z 16016G22KT 40/14 A2982 RMK A01 T03990144  RH  022%=      5-min Rain = 0
KAM3 202217Z 16019KT 40/14 A2982 RMK A01 T04010140  RH  022%=      5-min Rain = 0
KAM3 202218Z 18019KT 40/14 A2982 RMK A01 T03990138  RH  021%=      5-min Rain = 0
KAM3 202219Z 18015G22KT 40/14 A2982 RMK A01 T03990141  RH  022%=      5-min Rain = 0
KAM3 202220Z 17017G23KT 40/14 A2982 RMK A01 T04020139  RH  021%=      5-min Rain = 0
KAM3 202221Z 18015KT 40/14 A2982 RMK A01 T04030137  RH  021%=      5-min Rain = 0
KAM3 202222Z 18017KT 40/14 A2982 RMK A01 T04020138  RH  021%=      5-min Rain = 0
KAM3 202223Z 19013KT 40/14 A2982 RMK A01 T04010136  RH  021%=      5-min Rain = 0
KAM3 202224Z 20016G21KT 40/14 A2982 RMK A01 T03980135  RH  021%=      5-min Rain = 0
KAM3 202225Z 17016KT 40/14 A2982 RMK A01 T03980137  RH  021%=      5-min Rain = 0
KAM3 202226Z 18013KT 40/14 A2982 RMK A01 T03980138  RH  022%=      5-min Rain = 0
KAM3 202227Z 19017KT 40/14 A2982 RMK A01 T03990140  RH  022%=      5-min Rain = 0
KAM3 202228Z 19019G25KT 40/14 A2982 RMK A01 T04000141  RH  022%=      5-min Rain = 0
KAM3 202229Z 21013G18KT 40/14 A2982 RMK A01 T04000139  RH  021%=      5-min Rain = 0
KAM3 202230Z 20013KT 40/14 A2982 RMK A01 T03990138  RH  022%=      5-min Rain = 0
KAM3 202231Z 19012KT 40/14 A2982 RMK A01 T03990139  RH  022%=      5-min Rain = 0
KAM3 202232Z 17016G21KT 40/14 A2982 RMK A01 T03990140  RH  022%=      5-min Rain = 0
KAM3 202233Z 16018KT 40/14 A2982 RMK A01 T04000139  RH  022%=      5-min Rain = 0
KAM3 202234Z 17021KT 40/14 A2982 RMK A01 T03990137  RH  021%=      5-min Rain = 0
KAM3 202235Z 16020KT 40/14 A2982 RMK A01 T03970135  RH  021%=      5-min Rain = 0
KAM3 202236Z 17018G23KT 40/14 A2982 RMK A01 T03950137  RH  022%=      5-min Rain = 0
KAM3 202237Z 18018KT 40/14 A2981 RMK A01 T03950135  RH  022%=      5-min Rain = 0
KAM3 202238Z 17019G24KT 40/14 A2982 RMK A01 T03950136  RH  022%=      5-min Rain = 0
KAM3 202239Z 16019G24KT 40/14 A2982 RMK A01 T03960135  RH  021%=      5-min Rain = 0
KAM3 202240Z 16018KT 40/13 A2982 RMK A01 T03960134  RH  021%=      5-min Rain = 0
KAM3 202241Z 15014KT 40/13 A2981 RMK A01 T03960134  RH  021%=      5-min Rain = 0
KAM3 202242Z 15018KT 40/13 A2981 RMK A01 T03960134  RH  021%=      5-min Rain = 0
KAM3 202243Z 16020KT 40/13 A2981 RMK A01 T03950134  RH  021%=      5-min Rain = 0
KAM3 202244Z 16016KT 39/14 A2981 RMK A01 T03940135  RH  022%=      5-min Rain = 0
KAM3 202245Z 17019G24KT 40/14 A2981 RMK A01 T03960137  RH  022%=      5-min Rain = 0
KAM3 202246Z 17017KT 40/14 A2981 RMK A01 T03970136  RH  021%=      5-min Rain = 0
KAM3 202247Z 17016KT 40/13 A2981 RMK A01 T03970134  RH  021%=      5-min Rain = 0
KAM3 202248Z 18014KT 40/13 A2981 RMK A01 T03960134  RH  021%=      5-min Rain = 0
KAM3 202249Z 18016KT 40/14 A2981 RMK A01 T03970135  RH  021%=      5-min Rain = 0
KAM3 202250Z 19017G25KT 40/13 A2981 RMK A01 T03970133  RH  021%=      5-min Rain = 0
KAM3 202251Z 18020KT 40/14 A2981 RMK A01 T03980136  RH  021%=      5-min Rain = 0
KAM3 202252Z 18016KT 40/14 A2981 RMK A01 T03970136  RH  021%=      5-min Rain = 0
KAM3 202253Z 20012G17KT 40/14 A2981 RMK A01 T03970139  RH  022%=      5-min Rain = 0
KAM3 202254Z 19015KT 40/14 A2981 RMK A01 T03970138  RH  022%=      5-min Rain = 0
KAM3 202255Z 18015KT 40/14 A2981 RMK A01 T03980139  RH  022%=      5-min Rain = 0
KAM3 202256Z 18017G22KT 40/14 A2981 RMK A01 T03980138  RH  022%=      5-min Rain = 0
KAM3 202257Z 18016KT 40/14 A2981 RMK A01 T03980136  RH  021%=      5-min Rain = 0
KAM3 202258Z 18015KT 40/14 A2981 RMK A01 T03980136  RH  021%=      5-min Rain = 0
KAM3 202259Z 17012KT 40/14 A2981 RMK A01 T03970136  RH  022%=      5-min Rain = 0
KAM3 202300Z 17015KT 40/14 A2981 RMK A01 T03960138  RH  022%=      5-min Rain = 0
KAM3 202301Z 17013KT 40/14 A2981 RMK A01 T03960137  RH  022%=      5-min Rain = 0
KAM3 202302Z 16014KT 40/14 A2981 RMK A01 T03960138  RH  022%=      5-min Rain = 0
KAM3 202303Z 17013KT 40/14 A2981 RMK A01 T03970138  RH  022%=      5-min Rain = 0
KAM3 202304Z 18011KT 40/14 A2981 RMK A01 T03970139  RH  022%=      5-min Rain = 0
KAM3 202305Z 17015KT 40/14 A2981 RMK A01 T03970138  RH  022%=      5-min Rain = 0
KAM3 202306Z 17013KT 40/14 A2981 RMK A01 T03960137  RH  022%=      5-min Rain = 0
KAM3 202307Z 19016KT 40/14 A2981 RMK A01 T03960140  RH  022%=      5-min Rain = 0
KAM3 202308Z 18016KT 40/14 A2981 RMK A01 T03970135  RH  021%=      5-min Rain = 0
KAM3 202309Z 17018KT 40/14 A2981 RMK A01 T03970135  RH  021%=      5-min Rain = 0
KAM3 202310Z 16019KT 40/13 A2981 RMK A01 T03970133  RH  021%=      5-min Rain = 0
KAM3 202311Z 17014KT 40/13 A2981 RMK A01 T03960132  RH  021%=      5-min Rain = 0
KAM3 202312Z 19014KT 40/13 A2981 RMK A01 T03950130  RH  021%=      5-min Rain = 0
KAM3 202313Z 19013KT 39/13 A2981 RMK A01 T03940133  RH  021%=      5-min Rain = 0
KAM3 202314Z 18015G20KT 40/14 A2981 RMK A01 T03950135  RH  021%=      5-min Rain = 0
KAM3 202315Z 18015KT 40/13 A2981 RMK A01 T03970133  RH  021%=      5-min Rain = 0
KAM3 202316Z 17014KT 40/13 A2981 RMK A01 T03970134  RH  021%=      5-min Rain = 0
KAM3 202317Z 17018G23KT 40/13 A2981 RMK A01 T03960134  RH  021%=      5-min Rain = 0
KAM3 202318Z 17015KT 40/13 A2981 RMK A01 T03960134  RH  021%=      5-min Rain = 0
KAM3 202319Z 17016KT 40/13 A2981 RMK A01 T03960133  RH  021%=      5-min Rain = 0
KAM3 202320Z 17019KT 40/13 A2981 RMK A01 T03960132  RH  021%=      5-min Rain = 0
KAM3 202321Z 18016KT 40/13 A2981 RMK A01 T03950132  RH  021%=      5-min Rain = 0
KAM3 202322Z 18015KT 40/13 A2981 RMK A01 T03950130  RH  021%=      5-min Rain = 0
KAM3 202323Z 19015KT 39/13 A2981 RMK A01 T03940133  RH  021%=      5-min Rain = 0
KAM3 202324Z 19014G19KT 39/14 A298 RMK A01 T03940137  RH  022%=      5-min Rain = 0
KAM3 202325Z 20016KT 39/14 A298 RMK A01 T03940136  RH  022%=      5-min Rain = 0
KAM3 202326Z 19017KT 39/14 A298 RMK A01 T03940136  RH  022%=      5-min Rain = 0
KAM3 202327Z 19016KT 40/14 A2981 RMK A01 T03950135  RH  022%=      5-min Rain = 0
KAM3 202328Z 19013KT 40/14 A298 RMK A01 T03950135  RH  021%=      5-min Rain = 0
KAM3 202329Z 18011KT 39/14 A2981 RMK A01 T03940135  RH  022%=      5-min Rain = 0
KAM3 202330Z 18013KT 39/14 A2981 RMK A01 T03940136  RH  022%=      5-min Rain = 0
KAM3 202331Z 18010KT 39/14 A2981 RMK A01 T03940136  RH  022%=      5-min Rain = 0
KAM3 202332Z 16014G20KT 40/14 A2981 RMK A01 T03950138  RH  022%=      5-min Rain = 0
KAM3 202333Z 16013KT 40/14 A298 RMK A01 T03950139  RH  022%=      5-min Rain = 0
KAM3 202334Z 16016KT 40/14 A298 RMK A01 T03950136  RH  022%=      5-min Rain = 0
KAM3 202335Z 18015KT 39/14 A298 RMK A01 T03940136  RH  022%=      5-min Rain = 0
KAM3 202336Z 18016KT 40/14 A298 RMK A01 T03950137  RH  022%=      5-min Rain = 0
KAM3 202337Z 18017KT 40/13 A298 RMK A01 T03950134  RH  021%=      5-min Rain = 0
KAM3 202338Z 18017KT 39/13 A298 RMK A01 T03940134  RH  021%=      5-min Rain = 0
KAM3 202339Z 17016KT 39/14 A298 RMK A01 T03930135  RH  022%=      5-min Rain = 0
KAM3 202340Z 19016KT 39/14 A298 RMK A01 T03920137  RH  022%=      5-min Rain = 0
KAM3 202341Z 19016G21KT 39/13 A298 RMK A01 T03930134  RH  022%=      5-min Rain = 0
KAM3 202342Z 19016KT 39/13 A298 RMK A01 T03930134  RH  022%=      5-min Rain = 0
KAM3 202343Z 18014KT 39/14 A298 RMK A01 T03930135  RH  022%=      5-min Rain = 0
KAM3 202344Z 18017KT 39/13 A298 RMK A01 T03930134  RH  022%=      5-min Rain = 0
KAM3 202345Z 18016KT 39/13 A298 RMK A01 T03920133  RH  022%=      5-min Rain = 0
KAM3 202346Z 18017KT 39/13 A298 RMK A01 T03920133  RH  022%=      5-min Rain = 0
KAM3 202347Z 18011KT 39/14 A298 RMK A01 T03910136  RH  022%=      5-min Rain = 0
KAM3 202348Z 19013KT 39/14 A298 RMK A01 T03920139  RH  022%=      5-min Rain = 0
KAM3 202349Z 16012KT 39/14 A298 RMK A01 T03930140  RH  022%=      5-min Rain = 0
KAM3 202350Z 17015KT 39/14 A298 RMK A01 T03940141  RH  023%=      5-min Rain = 0
KAM3 202351Z 18013KT 39/14 A298 RMK A01 T03930139  RH  022%=      5-min Rain = 0
KAM3 202352Z 17015KT 39/14 A298 RMK A01 T03920139  RH  022%=      5-min Rain = 0
KAM3 202353Z 17017KT 39/14 A298 RMK A01 T03920139  RH  022%=      5-min Rain = 0
KAM3 202354Z 17015KT 39/14 A298 RMK A01 T03910140  RH  023%=      5-min Rain = 0
KAM3 202355Z 17017G22KT 39/14 A298 RMK A01 T03910140  RH  023%=      5-min Rain = 0
KAM3 202356Z 17017KT 39/14 A298 RMK A01 T03910139  RH  023%=      5-min Rain = 0
KAM3 202357Z 18015KT 39/14 A298 RMK A01 T03900139  RH  023%=      5-min Rain = 0
KAM3 202358Z 18014KT 39/14 A298 RMK A01 T03890139  RH  023%=      5-min Rain = 0
KAM3 202359Z 17015KT 39/14 A298 RMK A01 T03890140  RH  023%=      5-min Rain = 0
KAM3 210000Z 18015KT 39/14 A298 RMK A01 T03890138  RH  023%=      5-min Rain = 0
KAM3 210001Z 17013KT 39/14 A298 RMK A01 T03890140  RH  023%=      5-min Rain = 0
KAM3 210002Z 16016KT 39/14 A298 RMK A01 T03880140  RH  023%=      5-min Rain = 0
KAM3 210003Z 16014KT 39/14 A2981 RMK A01 T03880139  RH  023%=      5-min Rain = 0
KAM3 210004Z 17014KT 39/14 A298 RMK A01 T03870139  RH  023%=      5-min Rain = 0
KAM3 210005Z 17012KT 39/14 A2981 RMK A01 T03870140  RH  023%=      5-min Rain = 0
KAM3 210006Z 16014KT 39/14 A2981 RMK A01 T03870140  RH  023%=      5-min Rain = 0
KAM3 210007Z 16016KT 39/14 A2981 RMK A01 T03870139  RH  023%=      5-min Rain = 0
KAM3 210008Z 16014KT 39/14 A2981 RMK A01 T03870140  RH  023%=      5-min Rain = 0
KAM3 210009Z 17015G20KT 39/14 A2981 RMK A01 T03870139  RH  023%=      5-min Rain = 0
KAM3 210010Z 16016G21KT 39/14 A2981 RMK A01 T03870141  RH  023%=      5-min Rain = 0
KAM3 210011Z 16014KT 39/14 A2981 RMK A01 T03870139  RH  023%=      5-min Rain = 0
KAM3 210012Z 16015KT 39/14 A2981 RMK A01 T03860141  RH  023%=      5-min Rain = 0
KAM3 210013Z 17014KT 39/14 A2981 RMK A01 T03860140  RH  023%=      5-min Rain = 0
KAM3 210014Z 16013KT 39/14 A2981 RMK A01 T03860141  RH  024%=      5-min Rain = 0
KAM3 210015Z 17011KT 39/14 A2981 RMK A01 T03860142  RH  024%=      5-min Rain = 0
KAM3 210016Z 16011KT 39/14 A2981 RMK A01 T03860142  RH  024%=      5-min Rain = 0
KAM3 210017Z 17011KT 39/14 A2981 RMK A01 T03860142  RH  024%=      5-min Rain = 0
KAM3 210018Z 16015G21KT 39/14 A2981 RMK A01 T03870141  RH  023%=      5-min Rain = 0
KAM3 210019Z 18016KT 39/14 A298 RMK A01 T03860140  RH  023%=      5-min Rain = 0
KAM3 210020Z 17013G18KT 39/14 A2981 RMK A01 T03860140  RH  023%=      5-min Rain = 0
KAM3 210021Z 17011KT 39/14 A2981 RMK A01 T03850143  RH  024%=      5-min Rain = 0
KAM3 210022Z 16016KT 39/14 A2981 RMK A01 T03860142  RH  024%=      5-min Rain = 0
KAM3 210023Z 17015KT 39/14 A2981 RMK A01 T03850141  RH  024%=      5-min Rain = 0
KAM3 210024Z 17014KT 38/14 A2981 RMK A01 T03840141  RH  024%=      5-min Rain = 0
KAM3 210025Z 17015KT 38/14 A2981 RMK A01 T03840140  RH  024%=      5-min Rain = 0
KAM3 210026Z 16017KT 38/14 A2981 RMK A01 T03840140  RH  024%=      5-min Rain = 0
KAM3 210027Z 17011KT 38/14 A2981 RMK A01 T03830142  RH  024%=      5-min Rain = 0
KAM3 210028Z 17014G19KT 38/14 A2981 RMK A01 T03830142  RH  024%=      5-min Rain = 0
KAM3 210029Z 18015KT 38/14 A2981 RMK A01 T03830142  RH  024%=      5-min Rain = 0
KAM3 210030Z 18014KT 38/14 A2981 RMK A01 T03830142  RH  024%=      5-min Rain = 0
KAM3 210031Z 16014KT 38/14 A2981 RMK A01 T03820142  RH  024%=      5-min Rain = 0
KAM3 210032Z 17014KT 38/14 A2981 RMK A01 T03820142  RH  024%=      5-min Rain = 0
KAM3 210033Z 18013KT 38/14 A2981 RMK A01 T03810143  RH  024%=      5-min Rain = 0
KAM3 210034Z 17013KT 38/14 A2981 RMK A01 T03820144  RH  025%=      5-min Rain = 0
KAM3 210035Z 17015KT 38/14 A2981 RMK A01 T03810144  RH  025%=      5-min Rain = 0
KAM3 210036Z 17016G22KT 38/14 A2981 RMK A01 T03810144  RH  025%=      5-min Rain = 0
KAM3 210037Z 17017KT 38/14 A2981 RMK A01 T03810144  RH  025%=      5-min Rain = 0
KAM3 210038Z 16014KT 38/14 A2981 RMK A01 T03800144  RH  025%=      5-min Rain = 0
KAM3 210039Z 16016KT 38/14 A2981 RMK A01 T03790144  RH  025%=      5-min Rain = 0
KAM3 210040Z 17013KT 38/15 A2981 RMK A01 T03790145  RH  025%=      5-min Rain = 0
KAM3 210041Z 17015KT 38/15 A2981 RMK A01 T03790145  RH  025%=      5-min Rain = 0
KAM3 210042Z 16013KT 38/15 A2981 RMK A01 T03780145  RH  025%=      5-min Rain = 0
KAM3 210043Z 16015KT 38/15 A2981 RMK A01 T03780145  RH  025%=      5-min Rain = 0
KAM3 210044Z 16015G20KT 38/14 A2981 RMK A01 T03780144  RH  025%=      5-min Rain = 0
KAM3 210045Z 17013KT 38/15 A2981 RMK A01 T03780145  RH  025%=      5-min Rain = 0
KAM3 210046Z 17015KT 38/15 A2981 RMK A01 T03770145  RH  025%=      5-min Rain = 0
KAM3 210047Z 17016KT 38/14 A2981 RMK A01 T03770144  RH  025%=      5-min Rain = 0
KAM3 210048Z 17015KT 38/14 A2981 RMK A01 T03770144  RH  025%=      5-min Rain = 0
KAM3 210049Z 17014KT 38/15 A2981 RMK A01 T03770145  RH  025%=      5-min Rain = 0
KAM3 210050Z 17016KT 38/14 A2981 RMK A01 T03760144  RH  025%=      5-min Rain = 0
KAM3 210051Z 17012KT 38/15 A2981 RMK A01 T03760145  RH  025%=      5-min Rain = 0
KAM3 210052Z 16013G18KT 38/15 A2981 RMK A01 T03760145  RH  026%=      5-min Rain = 0
KAM3 210053Z 16018KT 38/15 A2981 RMK A01 T03750145  RH  025%=      5-min Rain = 0
KAM3 210054Z 16016G22KT 38/14 A2981 RMK A01 T03750144  RH  026%=      5-min Rain = 0
KAM3 210055Z 16014KT 37/15 A2981 RMK A01 T03740145  RH  026%=      5-min Rain = 0
KAM3 210056Z 16012G17KT 37/15 A2981 RMK A01 T03740147  RH  026%=      5-min Rain = 0
KAM3 210057Z 16013KT 37/15 A2981 RMK A01 T03730147  RH  026%=      5-min Rain = 0
KAM3 210058Z 16013KT 37/15 A2981 RMK A01 T03730146  RH  026%=      5-min Rain = 0
KAM3 210059Z 16014G20KT 37/15 A2981 RMK A01 T03730147  RH  026%=      5-min Rain = 0
KAM3 210100Z 17016G21KT 37/15 A2981 RMK A01 T03720146  RH  026%=      5-min Rain = 0
KAM3 210101Z 16014KT 37/15 A2981 RMK A01 T03720146  RH  026%=      5-min Rain = 0
KAM3 210102Z 16014KT 37/15 A2981 RMK A01 T03720146  RH  026%=      5-min Rain = 0
KAM3 210103Z 16013KT 37/15 A2981 RMK A01 T03720147  RH  026%=      5-min Rain = 0
KAM3 210104Z 16017KT 37/15 A2981 RMK A01 T03710147  RH  026%=      5-min Rain = 0
KAM3 210105Z 16015KT 37/15 A2981 RMK A01 T03710146  RH  026%=      5-min Rain = 0
KAM3 210106Z 17013KT 37/15 A2981 RMK A01 T03710146  RH  026%=      5-min Rain = 0
KAM3 210107Z 16012KT 37/15 A2981 RMK A01 T03710147  RH  027%=      5-min Rain = 0
KAM3 210108Z 16011KT 37/15 A2981 RMK A01 T03700148  RH  027%=      5-min Rain = 0
KAM3 210109Z 16012KT 37/15 A2981 RMK A01 T03690148  RH  027%=      5-min Rain = 0
KAM3 210110Z 17012KT 37/15 A2981 RMK A01 T03690148  RH  027%=      5-min Rain = 0
KAM3 210111Z 16012G18KT 37/15 A2981 RMK A01 T03680149  RH  027%=      5-min Rain = 0
KAM3 210112Z 16013KT 37/15 A2981 RMK A01 T03680149  RH  027%=      5-min Rain = 0
KAM3 210113Z 16014KT 37/15 A2981 RMK A01 T03670148  RH  027%=      5-min Rain = 0
KAM3 210114Z 16014KT 37/15 A2981 RMK A01 T03670148  RH  027%=      5-min Rain = 0
KAM3 210115Z 17014KT 37/15 A2982 RMK A01 T03670148  RH  027%=      5-min Rain = 0
KAM3 210116Z 16012G17KT 37/15 A2982 RMK A01 T03670148  RH  027%=      5-min Rain = 0
KAM3 210117Z 16013KT 37/15 A2982 RMK A01 T03660148  RH  027%=      5-min Rain = 0
KAM3 210118Z 16014KT 37/15 A2982 RMK A01 T03660148  RH  027%=      5-min Rain = 0
KAM3 210119Z 16014KT 37/15 A2982 RMK A01 T03660149  RH  028%=      5-min Rain = 0
KAM3 210120Z 16013KT 37/15 A2982 RMK A01 T03650149  RH  028%=      5-min Rain = 0
KAM3 210121Z 16014KT 37/15 A2982 RMK A01 T03650149  RH  028%=      5-min Rain = 0
KAM3 210122Z 16012KT 36/15 A2982 RMK A01 T03640150  RH  028%=      5-min Rain = 0
KAM3 210123Z 16012KT 36/15 A2982 RMK A01 T03640151  RH  028%=      5-min Rain = 0
KAM3 210124Z 16012KT 36/15 A2982 RMK A01 T03630152  RH  029%=      5-min Rain = 0
KAM3 210125Z 16015KT 36/15 A2982 RMK A01 T03620152  RH  029%=      5-min Rain = 0
KAM3 210126Z 15018KT 36/15 A2982 RMK A01 T03610152  RH  029%=      5-min Rain = 0
KAM3 210127Z 16015KT 36/15 A2982 RMK A01 T03610152  RH  029%=      5-min Rain = 0
KAM3 210128Z 15015KT 36/15 A2982 RMK A01 T03610152  RH  029%=      5-min Rain = 0
KAM3 210129Z 16014KT 36/15 A2982 RMK A01 T03610153  RH  029%=      5-min Rain = 0
KAM3 210130Z 16013KT 36/15 A2982 RMK A01 T03600153  RH  029%=      5-min Rain = 0
KAM3 210131Z 16012KT 36/15 A2982 RMK A01 T03590153  RH  029%=      5-min Rain = 0
KAM3 210132Z 15011KT 36/15 A2982 RMK A01 T03580154  RH  030%=      5-min Rain = 0
KAM3 210133Z 15013G18KT 36/15 A2982 RMK A01 T03570153  RH  030%=      5-min Rain = 0
KAM3 210134Z 16014G19KT 36/15 A2982 RMK A01 T03560153  RH  030%=      5-min Rain = 0
KAM3 210135Z 16013KT 36/15 A2982 RMK A01 T03560153  RH  030%=      5-min Rain = 0
KAM3 210136Z 16013G19KT 36/15 A2982 RMK A01 T03550153  RH  030%=      5-min Rain = 0
KAM3 210137Z 16012KT 36/15 A2982 RMK A01 T03550154  RH  030%=      5-min Rain = 0
KAM3 210138Z 15012G18KT 35/15 A2982 RMK A01 T03540154  RH  030%=      5-min Rain = 0
KAM3 210139Z 15013KT 35/15 A2982 RMK A01 T03530153  RH  030%=      5-min Rain = 0
KAM3 210140Z 16013KT 35/15 A2982 RMK A01 T03520153  RH  031%=      5-min Rain = 0
KAM3 210141Z 16014KT 35/15 A2982 RMK A01 T03520153  RH  031%=      5-min Rain = 0
KAM3 210142Z 16013KT 35/15 A2981 RMK A01 T03520153  RH  030%=      5-min Rain = 0
KAM3 210143Z 16012KT 35/15 A2981 RMK A01 T03520153  RH  031%=      5-min Rain = 0
KAM3 210144Z 16013KT 35/15 A2981 RMK A01 T03510153  RH  031%=      5-min Rain = 0
KAM3 210145Z 16013KT 35/15 A2981 RMK A01 T03510153  RH  031%=      5-min Rain = 0
KAM3 210146Z 16011KT 35/15 A2981 RMK A01 T03510153  RH  031%=      5-min Rain = 0
KAM3 210147Z 16013KT 35/15 A2981 RMK A01 T03490153  RH  031%=      5-min Rain = 0
KAM3 210148Z 16013KT 35/15 A2981 RMK A01 T03490153  RH  031%=      5-min Rain = 0
KAM3 210149Z 15016KT 35/15 A2981 RMK A01 T03480153  RH  031%=      5-min Rain = 0
KAM3 210150Z 16014KT 35/15 A2981 RMK A01 T03480152  RH  031%=      5-min Rain = 0
KAM3 210151Z 16016G21KT 35/15 A2981 RMK A01 T03480152  RH  031%=      5-min Rain = 0
KAM3 210152Z 16016KT 35/15 A2981 RMK A01 T03480152  RH  031%=      5-min Rain = 0
KAM3 210153Z 16015G20KT 35/15 A2981 RMK A01 T03490152  RH  031%=      5-min Rain = 0
KAM3 210154Z 16016KT 35/15 A2981 RMK A01 T03500152  RH  031%=      5-min Rain = 0
KAM3 210155Z 16015KT 35/15 A2981 RMK A01 T03490151  RH  031%=      5-min Rain = 0
KAM3 210156Z 16012KT 35/15 A2982 RMK A01 T03490152  RH  031%=      5-min Rain = 0
KAM3 210157Z 16016G21KT 35/15 A2982 RMK A01 T03490152  RH  031%=      5-min Rain = 0
KAM3 210158Z 16016KT 35/15 A2982 RMK A01 T03490152  RH  031%=      5-min Rain = 0
KAM3 210159Z 16014G19KT 35/15 A2982 RMK A01 T03480152  RH  031%=      5-min Rain = 0
KAM3 210200Z 16014KT 35/15 A2982 RMK A01 T03480151  RH  031%=      5-min Rain = 0
KAM3 210201Z 16016KT 35/15 A2982 RMK A01 T03480151  RH  031%=      5-min Rain = 0
KAM3 210202Z 17014KT 35/15 A2982 RMK A01 T03480151  RH  031%=      5-min Rain = 0
KAM3 210203Z 16014KT 35/15 A2982 RMK A01 T03480151  RH  031%=      5-min Rain = 0
KAM3 210204Z 16013KT 35/15 A2982 RMK A01 T03470151  RH  031%=      5-min Rain = 0
KAM3 210205Z 16014KT 35/15 A2982 RMK A01 T03460151  RH  031%=      5-min Rain = 0
KAM3 210206Z 16013G18KT 35/15 A2982 RMK A01 T03460151  RH  031%=      5-min Rain = 0
KAM3 210207Z 16014KT 35/15 A2982 RMK A01 T03450151  RH  031%=      5-min Rain = 0
KAM3 210208Z 16015KT 35/15 A2982 RMK A01 T03450151  RH  031%=      5-min Rain = 0
KAM3 210209Z 16012KT 35/15 A2982 RMK A01 T03450151  RH  031%=      5-min Rain = 0
KAM3 210210Z 16012KT 35/15 A2982 RMK A01 T03450151  RH  031%=      5-min Rain = 0
KAM3 210211Z 16013KT 35/15 A2982 RMK A01 T03450151  RH  031%=      5-min Rain = 0
KAM3 210212Z 16014KT 34/15 A2982 RMK A01 T03440151  RH  031%=      5-min Rain = 0
KAM3 210213Z 16014KT 35/15 A2982 RMK A01 T03450151  RH  031%=      5-min Rain = 0
KAM3 210214Z 16013KT 34/15 A2982 RMK A01 T03440151  RH  031%=      5-min Rain = 0
KAM3 210215Z 16013KT 34/15 A2982 RMK A01 T03440151  RH  032%=      5-min Rain = 0
KAM3 210216Z 16013KT 34/15 A2982 RMK A01 T03420151  RH  032%=      5-min Rain = 0
KAM3 210217Z 16011KT 34/15 A2982 RMK A01 T03420151  RH  032%=      5-min Rain = 0
KAM3 210218Z 15012KT 34/15 A2983 RMK A01 T03410151  RH  032%=      5-min Rain = 0
KAM3 210219Z 16012KT 34/15 A2983 RMK A01 T03410151  RH  032%=      5-min Rain = 0
KAM3 210220Z 16012G17KT 34/15 A2983 RMK A01 T03410151  RH  032%=      5-min Rain = 0
KAM3 210221Z 16013KT 34/15 A2983 RMK A01 T03400151  RH  032%=      5-min Rain = 0
KAM3 210222Z 15012KT 34/15 A2983 RMK A01 T03400150  RH  032%=      5-min Rain = 0
KAM3 210223Z 16012KT 34/15 A2983 RMK A01 T03400150  RH  032%=      5-min Rain = 0
KAM3 210224Z 15014KT 34/15 A2983 RMK A01 T03400151  RH  032%=      5-min Rain = 0
KAM3 210225Z 15013KT 34/15 A2983 RMK A01 T03390150  RH  032%=      5-min Rain = 0
KAM3 210226Z 16016KT 34/15 A2983 RMK A01 T03400150  RH  032%=      5-min Rain = 0
KAM3 210227Z 15015KT 34/15 A2983 RMK A01 T03400150  RH  032%=      5-min Rain = 0
KAM3 210228Z 16013KT 34/15 A2983 RMK A01 T03410150  RH  032%=      5-min Rain = 0
KAM3 210229Z 16012KT 34/15 A2983 RMK A01 T03410150  RH  032%=      5-min Rain = 0
KAM3 210230Z 15014G19KT 34/15 A2983 RMK A01 T03400150  RH  032%=      5-min Rain = 0
KAM3 210231Z 16014KT 34/15 A2983 RMK A01 T03390150  RH  032%=      5-min Rain = 0
KAM3 210232Z 16014KT 34/15 A2983 RMK A01 T03390150  RH  032%=      5-min Rain = 0
KAM3 210233Z 16014KT 34/15 A2983 RMK A01 T03390150  RH  032%=      5-min Rain = 0
KAM3 210234Z 15013KT 34/15 A2983 RMK A01 T03390150  RH  032%=      5-min Rain = 0
KAM3 210235Z 15013KT 34/15 A2983 RMK A01 T03390150  RH  032%=      5-min Rain = 0
KAM3 210236Z 15012KT 34/15 A2983 RMK A01 T03380150  RH  032%=      5-min Rain = 0
KAM3 210237Z 16015KT 34/15 A2983 RMK A01 T03370150  RH  033%=      5-min Rain = 0
KAM3 210238Z 16013KT 34/15 A2983 RMK A01 T03370150  RH  033%=      5-min Rain = 0
KAM3 210239Z 16012KT 34/15 A2984 RMK A01 T03370150  RH  033%=      5-min Rain = 0
KAM3 210240Z 15012KT 34/15 A2984 RMK A01 T03360150  RH  033%=      5-min Rain = 0
KAM3 210241Z 16011KT 34/15 A2984 RMK A01 T03350150  RH  033%=      5-min Rain = 0
KAM3 210242Z 16013KT 33/15 A2984 RMK A01 T03340150  RH  033%=      5-min Rain = 0
KAM3 210243Z 16015KT 33/15 A2984 RMK A01 T03340150  RH  033%=      5-min Rain = 0
KAM3 210244Z 15012G17KT 33/15 A2984 RMK A01 T03340149  RH  033%=      5-min Rain = 0
KAM3 210245Z 16015KT 33/15 A2984 RMK A01 T03340149  RH  033%=      5-min Rain = 0
KAM3 210246Z 15013KT 34/15 A2984 RMK A01 T03360150  RH  033%=      5-min Rain = 0
KAM3 210247Z 15013G18KT 34/15 A2984 RMK A01 T03350149  RH  033%=      5-min Rain = 0
KAM3 210248Z 15014KT 34/15 A2984 RMK A01 T03350150  RH  033%=      5-min Rain = 0
KAM3 210249Z 15014KT 34/15 A2984 RMK A01 T03350149  RH  033%=      5-min Rain = 0
KAM3 210250Z 16013KT 34/15 A2984 RMK A01 T03350149  RH  033%=      5-min Rain = 0
KAM3 210251Z 15011KT 34/15 A2984 RMK A01 T03350150  RH  033%=      5-min Rain = 0
KAM3 210252Z 16011KT 33/15 A2984 RMK A01 T03340150  RH  033%=      5-min Rain = 0
KAM3 210253Z 16013KT 33/15 A2984 RMK A01 T03330150  RH  033%=      5-min Rain = 0
KAM3 210254Z 15012KT 33/15 A2984 RMK A01 T03330150  RH  033%=      5-min Rain = 0
KAM3 210255Z 15013KT 33/15 A2984 RMK A01 T03320149  RH  033%=      5-min Rain = 0
KAM3 210256Z 16012KT 33/15 A2985 RMK A01 T03330149  RH  033%=      5-min Rain = 0
KAM3 210257Z 15012KT 33/15 A2985 RMK A01 T03320149  RH  033%=      5-min Rain = 0
KAM3 210258Z 15013KT 33/15 A2985 RMK A01 T03330150  RH  033%=      5-min Rain = 0
KAM3 210259Z 15012KT 33/15 A2985 RMK A01 T03330150  RH  033%=      5-min Rain = 0
KAM3 210300Z 15012KT 33/15 A2985 RMK A01 T03330150  RH  033%=      5-min Rain = 0
KAM3 210301Z 16011KT 33/15 A2985 RMK A01 T03320150  RH  033%=      5-min Rain = 0
KAM3 210302Z 16011KT 33/15 A2985 RMK A01 T03320150  RH  033%=      5-min Rain = 0
KAM3 210303Z 16012KT 33/15 A2985 RMK A01 T03310150  RH  034%=      5-min Rain = 0
KAM3 210304Z 16012KT 33/15 A2985 RMK A01 T03310150  RH  034%=      5-min Rain = 0
KAM3 210305Z 15012KT 33/15 A2985 RMK A01 T03300150  RH  034%=      5-min Rain = 0
KAM3 210306Z 15011KT 33/15 A2986 RMK A01 T03300150  RH  034%=      5-min Rain = 0
KAM3 210307Z 16011KT 33/15 A2986 RMK A01 T03290150  RH  034%=      5-min Rain = 0
KAM3 210308Z 16012KT 33/15 A2986 RMK A01 T03290149  RH  034%=      5-min Rain = 0
KAM3 210309Z 16010KT 33/15 A2986 RMK A01 T03290150  RH  034%=      5-min Rain = 0
KAM3 210310Z 16012KT 33/15 A2986 RMK A01 T03290149  RH  034%=      5-min Rain = 0
KAM3 210311Z 15012KT 33/15 A2986 RMK A01 T03280149  RH  034%=      5-min Rain = 0
KAM3 210312Z 15012KT 33/15 A2986 RMK A01 T03280149  RH  034%=      5-min Rain = 0
KAM3 210313Z 15011KT 33/15 A2986 RMK A01 T03280149  RH  034%=      5-min Rain = 0
KAM3 210314Z 15012KT 33/15 A2986 RMK A01 T03290149  RH  034%=      5-min Rain = 0
KAM3 210315Z 15012KT 33/15 A2986 RMK A01 T03290149  RH  034%=      5-min Rain = 0
KAM3 210316Z 16011KT 33/15 A2986 RMK A01 T03280149  RH  034%=      5-min Rain = 0
KAM3 210317Z 15010G15KT 33/15 A2986 RMK A01 T03280149  RH  034%=      5-min Rain = 0
KAM3 210318Z 15013KT 33/15 A2986 RMK A01 T03270148  RH  034%=      5-min Rain = 0
KAM3 210319Z 15013KT 33/15 A2986 RMK A01 T03280148  RH  034%=      5-min Rain = 0
KAM3 210320Z 15012KT 33/15 A2986 RMK A01 T03280149  RH  034%=      5-min Rain = 0
KAM3 210321Z 15012G18KT 33/15 A2986 RMK A01 T03280148  RH  034%=      5-min Rain = 0
KAM3 210322Z 15015KT 33/15 A2986 RMK A01 T03280147  RH  034%=      5-min Rain = 0
KAM3 210323Z 15012KT 33/15 A2986 RMK A01 T03290147  RH  033%=      5-min Rain = 0
KAM3 210324Z 15013KT 33/15 A2986 RMK A01 T03290147  RH  033%=      5-min Rain = 0
KAM3 210325Z 15014KT 33/15 A2986 RMK A01 T03290147  RH  033%=      5-min Rain = 0
KAM3 210326Z 16011KT 33/15 A2986 RMK A01 T03290147  RH  033%=      5-min Rain = 0
KAM3 210327Z 15012KT 33/15 A2987 RMK A01 T03280147  RH  033%=      5-min Rain = 0
KAM3 210328Z 15011KT 33/15 A2987 RMK A01 T03280146  RH  033%=      5-min Rain = 0
KAM3 210329Z 16012KT 33/15 A2987 RMK A01 T03280147  RH  034%=      5-min Rain = 0
KAM3 210330Z 16013KT 33/15 A2987 RMK A01 T03270146  RH  034%=      5-min Rain = 0
KAM3 210331Z 15012G18KT 33/15 A2987 RMK A01 T03270146  RH  034%=      5-min Rain = 0
KAM3 210332Z 15014G19KT 33/15 A2987 RMK A01 T03270145  RH  033%=      5-min Rain = 0
KAM3 210333Z 15015KT 33/15 A2987 RMK A01 T03280145  RH  033%=      5-min Rain = 0
KAM3 210334Z 15012KT 33/15 A2987 RMK A01 T03280145  RH  033%=      5-min Rain = 0
KAM3 210335Z 15012G17KT 33/15 A2987 RMK A01 T03280145  RH  033%=      5-min Rain = 0
KAM3 210336Z 15011KT 33/15 A2987 RMK A01 T03280145  RH  033%=      5-min Rain = 0
KAM3 210337Z 15010KT 33/15 A2987 RMK A01 T03270145  RH  033%=      5-min Rain = 0
KAM3 210338Z 15011KT 33/15 A2987 RMK A01 T03260145  RH  034%=      5-min Rain = 0
KAM3 210339Z 15011KT 33/15 A2987 RMK A01 T03250145  RH  034%=      5-min Rain = 0
KAM3 210340Z 15011KT 32/14 A2987 RMK A01 T03240144  RH  034%=      5-min Rain = 0
KAM3 210341Z 15012KT 32/15 A2987 RMK A01 T03240145  RH  034%=      5-min Rain = 0
KAM3 210342Z 15013KT 32/14 A2987 RMK A01 T03240144  RH  034%=      5-min Rain = 0
KAM3 210343Z 15012KT 32/14 A2987 RMK A01 T03240144  RH  034%=      5-min Rain = 0
KAM3 210344Z 15011KT 32/14 A2987 RMK A01 T03240144  RH  034%=      5-min Rain = 0
KAM3 210345Z 15011KT 32/14 A2987 RMK A01 T03240144  RH  034%=      5-min Rain = 0
KAM3 210346Z 15012KT 32/14 A2987 RMK A01 T03240144  RH  034%=      5-min Rain = 0
KAM3 210347Z 16013KT 32/14 A2987 RMK A01 T03240144  RH  034%=      5-min Rain = 0
KAM3 210348Z 15011KT 32/14 A2987 RMK A01 T03230144  RH  034%=      5-min Rain = 0
KAM3 210349Z 15011G16KT 32/14 A2987 RMK A01 T03230144  RH  034%=      5-min Rain = 0
KAM3 210350Z 15011KT 32/14 A2987 RMK A01 T03230144  RH  034%=      5-min Rain = 0
KAM3 210351Z 15012G17KT 32/14 A2987 RMK A01 T03230144  RH  034%=      5-min Rain = 0
KAM3 210352Z 15013KT 32/14 A2987 RMK A01 T03220144  RH  034%=      5-min Rain = 0
KAM3 210353Z 15011KT 32/14 A2987 RMK A01 T03230144  RH  034%=      5-min Rain = 0
KAM3 210354Z 15013KT 32/14 A2987 RMK A01 T03220144  RH  034%=      5-min Rain = 0
KAM3 210355Z 15012G17KT 32/14 A2987 RMK A01 T03220143  RH  034%=      5-min Rain = 0
KAM3 210356Z 15010KT 32/14 A2987 RMK A01 T03220143  RH  034%=      5-min Rain = 0
KAM3 210357Z 15011KT 32/14 A2987 RMK A01 T03220144  RH  034%=      5-min Rain = 0
KAM3 210358Z 15013KT 32/14 A2987 RMK A01 T03210143  RH  034%=      5-min Rain = 0
KAM3 210359Z 15012KT 32/14 A2987 RMK A01 T03210143  RH  034%=      5-min Rain = 0
KAM3 210400Z 15012G18KT 32/14 A2987 RMK A01 T03210143  RH  034%=      5-min Rain = 0
KAM3 210401Z 15013KT 32/14 A2987 RMK A01 T03210143  RH  034%=      5-min Rain = 0
KAM3 210402Z 15012KT 32/14 A2988 RMK A01 T03220143  RH  034%=      5-min Rain = 0
KAM3 210403Z 15013KT 32/14 A2988 RMK A01 T03220143  RH  034%=      5-min Rain = 0
KAM3 210404Z 15012KT 32/14 A2988 RMK A01 T03220144  RH  034%=      5-min Rain = 0
KAM3 210405Z 15011KT 32/14 A2988 RMK A01 T03210144  RH  034%=      5-min Rain = 0
KAM3 210406Z 15011KT 32/14 A2988 RMK A01 T03210144  RH  034%=      5-min Rain = 0
KAM3 210407Z 15012KT 32/14 A2988 RMK A01 T03210144  RH  034%=      5-min Rain = 0
KAM3 210408Z 15012KT 32/14 A2988 RMK A01 T03210144  RH  034%=      5-min Rain = 0
KAM3 210409Z 15013KT 32/14 A2988 RMK A01 T03210144  RH  034%=      5-min Rain = 0
KAM3 210410Z 15012KT 32/14 A2988 RMK A01 T03210144  RH  034%=      5-min Rain = 0
KAM3 210411Z 15013KT 32/14 A2988 RMK A01 T03210144  RH  034%=      5-min Rain = 0
KAM3 210412Z 15011KT 32/14 A2988 RMK A01 T03210144  RH  034%=      5-min Rain = 0
KAM3 210413Z 15012KT 32/14 A2988 RMK A01 T03200144  RH  034%=      5-min Rain = 0
KAM3 210414Z 15011KT 32/14 A2988 RMK A01 T03190144  RH  035%=      5-min Rain = 0
KAM3 210415Z 15011KT 32/14 A2988 RMK A01 T03190144  RH  035%=      5-min Rain = 0
KAM3 210416Z 15011KT 32/14 A2988 RMK A01 T03190144  RH  035%=      5-min Rain = 0
KAM3 210417Z 15010KT 32/14 A2988 RMK A01 T03200144  RH  035%=      5-min Rain = 0
KAM3 210418Z 15011KT 32/14 A2988 RMK A01 T03190144  RH  035%=      5-min Rain = 0
KAM3 210419Z 15010KT 32/15 A2988 RMK A01 T03180145  RH  035%=      5-min Rain = 0
KAM3 210420Z 15011KT 32/14 A2988 RMK A01 T03170144  RH  035%=      5-min Rain = 0
KAM3 210421Z 15011KT 32/14 A2988 RMK A01 T03170144  RH  035%=      5-min Rain = 0
KAM3 210422Z 16010KT 32/15 A2988 RMK A01 T03170145  RH  035%=      5-min Rain = 0
KAM3 210423Z 15013KT 32/14 A2988 RMK A01 T03150144  RH  035%=      5-min Rain = 0
KAM3 210424Z 15012KT 32/14 A2988 RMK A01 T03150144  RH  035%=      5-min Rain = 0
KAM3 210425Z 16011KT 32/15 A2988 RMK A01 T03160145  RH  035%=      5-min Rain = 0
KAM3 210426Z 15012KT 32/15 A2988 RMK A01 T03150145  RH  036%=      5-min Rain = 0
KAM3 210427Z 15011KT 32/15 A2988 RMK A01 T03150145  RH  036%=      5-min Rain = 0
KAM3 210428Z 15009KT 32/15 A2988 RMK A01 T03150145  RH  036%=      5-min Rain = 0
KAM3 210429Z 15010KT 31/15 A2988 RMK A01 T03140146  RH  036%=      5-min Rain = 0
KAM3 210430Z 15010KT 31/15 A2988 RMK A01 T03120145  RH  036%=      5-min Rain = 0
KAM3 210431Z 15009KT 31/15 A2988 RMK A01 T03120146  RH  036%=      5-min Rain = 0
KAM3 210432Z 15010KT 31/15 A2988 RMK A01 T03110146  RH  037%=      5-min Rain = 0
KAM3 210433Z 15010KT 31/15 A2988 RMK A01 T03100145  RH  037%=      5-min Rain = 0
KAM3 210434Z 15009KT 31/15 A2988 RMK A01 T03090146  RH  037%=      5-min Rain = 0
KAM3 210435Z 15012KT 31/15 A2988 RMK A01 T03080146  RH  037%=      5-min Rain = 0
KAM3 210436Z 16011KT 31/15 A2988 RMK A01 T03090146  RH  037%=      5-min Rain = 0
KAM3 210437Z 16013KT 31/15 A2988 RMK A01 T03090146  RH  037%=      5-min Rain = 0
KAM3 210438Z 15013KT 31/15 A2988 RMK A01 T03100146  RH  037%=      5-min Rain = 0
KAM3 210439Z 16013KT 31/15 A2988 RMK A01 T03100146  RH  037%=      5-min Rain = 0
KAM3 210440Z 15013KT 31/15 A2988 RMK A01 T03100147  RH  037%=      5-min Rain = 0
KAM3 210441Z 15011KT 31/15 A2988 RMK A01 T03100147  RH  037%=      5-min Rain = 0
KAM3 210442Z 16012KT 31/15 A2988 RMK A01 T03100147  RH  037%=      5-min Rain = 0
KAM3 210443Z 16012KT 31/15 A2988 RMK A01 T03100147  RH  037%=      5-min Rain = 0
KAM3 210444Z 16013KT 31/15 A2988 RMK A01 T03090148  RH  038%=      5-min Rain = 0
KAM3 210445Z 16015KT 31/15 A2988 RMK A01 T03090148  RH  038%=      5-min Rain = 0
KAM3 210446Z 16015KT 31/15 A2988 RMK A01 T03090148  RH  037%=      5-min Rain = 0
KAM3 210447Z 16014KT 31/15 A2988 RMK A01 T03100148  RH  037%=      5-min Rain = 0
KAM3 210448Z 16013KT 31/15 A2988 RMK A01 T03110149  RH  037%=      5-min Rain = 0
KAM3 210449Z 16012KT 31/15 A2988 RMK A01 T03110150  RH  038%=      5-min Rain = 0
KAM3 210450Z 16015KT 31/15 A2988 RMK A01 T03100150  RH  038%=      5-min Rain = 0
KAM3 210451Z 15015KT 31/15 A2989 RMK A01 T03100150  RH  038%=      5-min Rain = 0
KAM3 210452Z 16016KT 31/15 A2989 RMK A01 T03100151  RH  038%=      5-min Rain = 0
KAM3 210453Z 16015KT 31/15 A2989 RMK A01 T03110151  RH  038%=      5-min Rain = 0
KAM3 210454Z 16015KT 31/15 A2989 RMK A01 T03110152  RH  038%=      5-min Rain = 0
KAM3 210455Z 16013KT 31/15 A2989 RMK A01 T03110153  RH  038%=      5-min Rain = 0
KAM3 210456Z 15013G18KT 31/15 A2989 RMK A01 T03100153  RH  039%=      5-min Rain = 0
KAM3 210457Z 15014G20KT 31/15 A2988 RMK A01 T03100153  RH  039%=      5-min Rain = 0
KAM3 210458Z 16012KT 31/15 A2989 RMK A01 T03100154  RH  039%=      5-min Rain = 0
KAM3 210459Z 16015KT 31/15 A2989 RMK A01 T03090154  RH  039%=      5-min Rain = 0

Page generated in 0.078 seconds.